<?xml version="1.0" encoding="UTF-8" standalone="no" ?>
<gpx xmlns="http://www.topografix.com/GPX/1/1" xmlns:xsi="http://www.w3.org/2001/XMLSchema-instance" xsi:schemaLocation="http://www.topografix.com/GPX/1/1 http://www.topografix.com/GPX/1/1/gpx.xsd" version="1.1" creator="VisuGPX - https://www.visugpx.com">
  <metadata>
    <name>la trace du groupe 4</name>
    <desc><![CDATA[club vtt des rochers à saint vite]]></desc>
  </metadata>
  <trk>
    <name><![CDATA[03-OCT-15 17:29:09]]></name>
    <trkseg>
      <trkpt lat="44.47207" lon="0.93429">
        <ele>74.64</ele>
        <time>2015-10-03T12:07:46Z</time>
      </trkpt>
      <trkpt lat="44.47208" lon="0.93428">
        <ele>72.72</ele>
        <time>2015-10-03T12:08:02Z</time>
      </trkpt>
      <trkpt lat="44.47209" lon="0.9343">
        <ele>72.24</ele>
        <time>2015-10-03T12:08:19Z</time>
      </trkpt>
      <trkpt lat="44.4721" lon="0.93422">
        <ele>72.72</ele>
        <time>2015-10-03T12:08:31Z</time>
      </trkpt>
      <trkpt lat="44.4721" lon="0.93422">
        <ele>74.16</ele>
        <time>2015-10-03T12:08:47Z</time>
      </trkpt>
      <trkpt lat="44.47209" lon="0.93423">
        <ele>74.16</ele>
        <time>2015-10-03T12:09:16Z</time>
      </trkpt>
      <trkpt lat="44.47208" lon="0.93423">
        <ele>74.64</ele>
        <time>2015-10-03T12:09:47Z</time>
      </trkpt>
      <trkpt lat="44.47208" lon="0.93424">
        <ele>73.68</ele>
        <time>2015-10-03T12:10:11Z</time>
      </trkpt>
      <trkpt lat="44.47208" lon="0.93425">
        <ele>73.2</ele>
        <time>2015-10-03T12:10:38Z</time>
      </trkpt>
      <trkpt lat="44.47208" lon="0.93426">
        <ele>72.24</ele>
        <time>2015-10-03T12:11:07Z</time>
      </trkpt>
      <trkpt lat="44.47207" lon="0.93426">
        <ele>73.2</ele>
        <time>2015-10-03T12:11:27Z</time>
      </trkpt>
      <trkpt lat="44.47207" lon="0.93426">
        <ele>73.2</ele>
        <time>2015-10-03T12:11:50Z</time>
      </trkpt>
      <trkpt lat="44.47206" lon="0.93426">
        <ele>74.16</ele>
        <time>2015-10-03T12:12:17Z</time>
      </trkpt>
      <trkpt lat="44.47205" lon="0.93426">
        <ele>74.64</ele>
        <time>2015-10-03T12:12:54Z</time>
      </trkpt>
      <trkpt lat="44.47206" lon="0.93426">
        <ele>74.16</ele>
        <time>2015-10-03T12:13:25Z</time>
      </trkpt>
      <trkpt lat="44.47207" lon="0.93427">
        <ele>72.72</ele>
        <time>2015-10-03T12:13:58Z</time>
      </trkpt>
      <trkpt lat="44.47207" lon="0.93425">
        <ele>72.72</ele>
        <time>2015-10-03T12:14:21Z</time>
      </trkpt>
      <trkpt lat="44.47206" lon="0.93427">
        <ele>73.68</ele>
        <time>2015-10-03T12:14:51Z</time>
      </trkpt>
      <trkpt lat="44.47206" lon="0.93427">
        <ele>72.72</ele>
        <time>2015-10-03T12:15:05Z</time>
      </trkpt>
      <trkpt lat="44.47207" lon="0.93428">
        <ele>71.76</ele>
        <time>2015-10-03T12:15:24Z</time>
      </trkpt>
      <trkpt lat="44.47207" lon="0.93427">
        <ele>70.79</ele>
        <time>2015-10-03T12:15:46Z</time>
      </trkpt>
      <trkpt lat="44.47207" lon="0.93426">
        <ele>70.31</ele>
        <time>2015-10-03T12:16:14Z</time>
      </trkpt>
      <trkpt lat="44.47207" lon="0.93426">
        <ele>70.31</ele>
        <time>2015-10-03T12:16:30Z</time>
      </trkpt>
      <trkpt lat="44.47207" lon="0.93426">
        <ele>70.79</ele>
        <time>2015-10-03T12:16:56Z</time>
      </trkpt>
      <trkpt lat="44.47208" lon="0.93426">
        <ele>70.79</ele>
        <time>2015-10-03T12:17:16Z</time>
      </trkpt>
      <trkpt lat="44.47208" lon="0.93426">
        <ele>70.79</ele>
        <time>2015-10-03T12:17:40Z</time>
      </trkpt>
      <trkpt lat="44.47208" lon="0.93427">
        <ele>71.27</ele>
        <time>2015-10-03T12:18:06Z</time>
      </trkpt>
      <trkpt lat="44.47208" lon="0.93427">
        <ele>70.79</ele>
        <time>2015-10-03T12:18:25Z</time>
      </trkpt>
      <trkpt lat="44.47208" lon="0.93427">
        <ele>70.79</ele>
        <time>2015-10-03T12:18:59Z</time>
      </trkpt>
      <trkpt lat="44.47208" lon="0.93427">
        <ele>70.79</ele>
        <time>2015-10-03T12:19:16Z</time>
      </trkpt>
      <trkpt lat="44.47208" lon="0.93427">
        <ele>70.79</ele>
        <time>2015-10-03T12:19:35Z</time>
      </trkpt>
      <trkpt lat="44.47208" lon="0.93427">
        <ele>70.79</ele>
        <time>2015-10-03T12:19:47Z</time>
      </trkpt>
      <trkpt lat="44.472" lon="0.93432">
        <ele>70.31</ele>
        <time>2015-10-03T12:19:54Z</time>
      </trkpt>
      <trkpt lat="44.47198" lon="0.93433">
        <ele>70.31</ele>
        <time>2015-10-03T12:19:57Z</time>
      </trkpt>
      <trkpt lat="44.47195" lon="0.9343">
        <ele>70.79</ele>
        <time>2015-10-03T12:20:11Z</time>
      </trkpt>
      <trkpt lat="44.47194" lon="0.93431">
        <ele>70.31</ele>
        <time>2015-10-03T12:20:31Z</time>
      </trkpt>
      <trkpt lat="44.47194" lon="0.9343">
        <ele>70.79</ele>
        <time>2015-10-03T12:20:50Z</time>
      </trkpt>
      <trkpt lat="44.47195" lon="0.93432">
        <ele>70.31</ele>
        <time>2015-10-03T12:21:12Z</time>
      </trkpt>
      <trkpt lat="44.47196" lon="0.93432">
        <ele>69.35</ele>
        <time>2015-10-03T12:21:34Z</time>
      </trkpt>
      <trkpt lat="44.47196" lon="0.93432">
        <ele>69.35</ele>
        <time>2015-10-03T12:21:56Z</time>
      </trkpt>
      <trkpt lat="44.47195" lon="0.93431">
        <ele>69.35</ele>
        <time>2015-10-03T12:22:17Z</time>
      </trkpt>
      <trkpt lat="44.47195" lon="0.93432">
        <ele>69.35</ele>
        <time>2015-10-03T12:22:31Z</time>
      </trkpt>
      <trkpt lat="44.47195" lon="0.93431">
        <ele>70.31</ele>
        <time>2015-10-03T12:22:57Z</time>
      </trkpt>
      <trkpt lat="44.47195" lon="0.93431">
        <ele>70.79</ele>
        <time>2015-10-03T12:23:20Z</time>
      </trkpt>
      <trkpt lat="44.47194" lon="0.93431">
        <ele>69.83</ele>
        <time>2015-10-03T12:23:43Z</time>
      </trkpt>
      <trkpt lat="44.47195" lon="0.93431">
        <ele>69.83</ele>
        <time>2015-10-03T12:24:11Z</time>
      </trkpt>
      <trkpt lat="44.47194" lon="0.93431">
        <ele>69.83</ele>
        <time>2015-10-03T12:24:33Z</time>
      </trkpt>
      <trkpt lat="44.47194" lon="0.93431">
        <ele>69.83</ele>
        <time>2015-10-03T12:24:45Z</time>
      </trkpt>
      <trkpt lat="44.47194" lon="0.9343">
        <ele>70.31</ele>
        <time>2015-10-03T12:25:08Z</time>
      </trkpt>
      <trkpt lat="44.47192" lon="0.9343">
        <ele>69.83</ele>
        <time>2015-10-03T12:25:34Z</time>
      </trkpt>
      <trkpt lat="44.47191" lon="0.93441">
        <ele>69.83</ele>
        <time>2015-10-03T12:25:41Z</time>
      </trkpt>
      <trkpt lat="44.47185" lon="0.93458">
        <ele>70.31</ele>
        <time>2015-10-03T12:25:49Z</time>
      </trkpt>
      <trkpt lat="44.47182" lon="0.93461">
        <ele>70.31</ele>
        <time>2015-10-03T12:25:51Z</time>
      </trkpt>
      <trkpt lat="44.4718" lon="0.93463">
        <ele>69.83</ele>
        <time>2015-10-03T12:25:52Z</time>
      </trkpt>
      <trkpt lat="44.47178" lon="0.93464">
        <ele>69.83</ele>
        <time>2015-10-03T12:25:53Z</time>
      </trkpt>
      <trkpt lat="44.47175" lon="0.93465">
        <ele>69.83</ele>
        <time>2015-10-03T12:25:54Z</time>
      </trkpt>
      <trkpt lat="44.47173" lon="0.93466">
        <ele>69.83</ele>
        <time>2015-10-03T12:25:55Z</time>
      </trkpt>
      <trkpt lat="44.47171" lon="0.93467">
        <ele>69.83</ele>
        <time>2015-10-03T12:25:56Z</time>
      </trkpt>
      <trkpt lat="44.47124" lon="0.93487">
        <ele>68.39</ele>
        <time>2015-10-03T12:26:15Z</time>
      </trkpt>
      <trkpt lat="44.4711" lon="0.93491">
        <ele>68.39</ele>
        <time>2015-10-03T12:26:28Z</time>
      </trkpt>
      <trkpt lat="44.4711" lon="0.93491">
        <ele>67.91</ele>
        <time>2015-10-03T12:26:38Z</time>
      </trkpt>
      <trkpt lat="44.47109" lon="0.9349">
        <ele>67.91</ele>
        <time>2015-10-03T12:26:39Z</time>
      </trkpt>
      <trkpt lat="44.47108" lon="0.93488">
        <ele>67.91</ele>
        <time>2015-10-03T12:26:40Z</time>
      </trkpt>
      <trkpt lat="44.47107" lon="0.93485">
        <ele>67.91</ele>
        <time>2015-10-03T12:26:41Z</time>
      </trkpt>
      <trkpt lat="44.47106" lon="0.93482">
        <ele>67.91</ele>
        <time>2015-10-03T12:26:42Z</time>
      </trkpt>
      <trkpt lat="44.47104" lon="0.9348">
        <ele>67.91</ele>
        <time>2015-10-03T12:26:43Z</time>
      </trkpt>
      <trkpt lat="44.47103" lon="0.93478">
        <ele>68.39</ele>
        <time>2015-10-03T12:26:44Z</time>
      </trkpt>
      <trkpt lat="44.47103" lon="0.93476">
        <ele>68.39</ele>
        <time>2015-10-03T12:26:45Z</time>
      </trkpt>
      <trkpt lat="44.47102" lon="0.93475">
        <ele>68.39</ele>
        <time>2015-10-03T12:26:46Z</time>
      </trkpt>
      <trkpt lat="44.47101" lon="0.93473">
        <ele>68.39</ele>
        <time>2015-10-03T12:26:47Z</time>
      </trkpt>
      <trkpt lat="44.471" lon="0.93471">
        <ele>68.87</ele>
        <time>2015-10-03T12:26:48Z</time>
      </trkpt>
      <trkpt lat="44.471" lon="0.93468">
        <ele>68.87</ele>
        <time>2015-10-03T12:26:49Z</time>
      </trkpt>
      <trkpt lat="44.47098" lon="0.93465">
        <ele>68.87</ele>
        <time>2015-10-03T12:26:50Z</time>
      </trkpt>
      <trkpt lat="44.47076" lon="0.93414">
        <ele>68.87</ele>
        <time>2015-10-03T12:27:02Z</time>
      </trkpt>
      <trkpt lat="44.47042" lon="0.93328">
        <ele>69.83</ele>
        <time>2015-10-03T12:27:20Z</time>
      </trkpt>
      <trkpt lat="44.47017" lon="0.93237">
        <ele>70.31</ele>
        <time>2015-10-03T12:27:38Z</time>
      </trkpt>
      <trkpt lat="44.46996" lon="0.93111">
        <ele>69.83</ele>
        <time>2015-10-03T12:28:02Z</time>
      </trkpt>
      <trkpt lat="44.46975" lon="0.93039">
        <ele>69.83</ele>
        <time>2015-10-03T12:28:18Z</time>
      </trkpt>
      <trkpt lat="44.46943" lon="0.92975">
        <ele>69.83</ele>
        <time>2015-10-03T12:28:35Z</time>
      </trkpt>
      <trkpt lat="44.46929" lon="0.92898">
        <ele>70.79</ele>
        <time>2015-10-03T12:28:52Z</time>
      </trkpt>
      <trkpt lat="44.46926" lon="0.92827">
        <ele>71.27</ele>
        <time>2015-10-03T12:29:07Z</time>
      </trkpt>
      <trkpt lat="44.46921" lon="0.92743">
        <ele>69.35</ele>
        <time>2015-10-03T12:29:25Z</time>
      </trkpt>
      <trkpt lat="44.46914" lon="0.92716">
        <ele>68.87</ele>
        <time>2015-10-03T12:29:30Z</time>
      </trkpt>
      <trkpt lat="44.4689" lon="0.92643">
        <ele>65.99</ele>
        <time>2015-10-03T12:29:41Z</time>
      </trkpt>
      <trkpt lat="44.4689" lon="0.92634">
        <ele>65.51</ele>
        <time>2015-10-03T12:29:42Z</time>
      </trkpt>
      <trkpt lat="44.4689" lon="0.92625">
        <ele>65.03</ele>
        <time>2015-10-03T12:29:43Z</time>
      </trkpt>
      <trkpt lat="44.4689" lon="0.92616">
        <ele>64.55</ele>
        <time>2015-10-03T12:29:44Z</time>
      </trkpt>
      <trkpt lat="44.46892" lon="0.92607">
        <ele>64.07</ele>
        <time>2015-10-03T12:29:45Z</time>
      </trkpt>
      <trkpt lat="44.46895" lon="0.92599">
        <ele>64.07</ele>
        <time>2015-10-03T12:29:46Z</time>
      </trkpt>
      <trkpt lat="44.46898" lon="0.92592">
        <ele>63.58</ele>
        <time>2015-10-03T12:29:47Z</time>
      </trkpt>
      <trkpt lat="44.46901" lon="0.92584">
        <ele>63.58</ele>
        <time>2015-10-03T12:29:48Z</time>
      </trkpt>
      <trkpt lat="44.46904" lon="0.92577">
        <ele>63.58</ele>
        <time>2015-10-03T12:29:49Z</time>
      </trkpt>
      <trkpt lat="44.46922" lon="0.92505">
        <ele>65.99</ele>
        <time>2015-10-03T12:30:01Z</time>
      </trkpt>
      <trkpt lat="44.46916" lon="0.92439">
        <ele>65.51</ele>
        <time>2015-10-03T12:30:14Z</time>
      </trkpt>
      <trkpt lat="44.46909" lon="0.92378">
        <ele>66.47</ele>
        <time>2015-10-03T12:30:27Z</time>
      </trkpt>
      <trkpt lat="44.46899" lon="0.92302">
        <ele>67.91</ele>
        <time>2015-10-03T12:30:43Z</time>
      </trkpt>
      <trkpt lat="44.46886" lon="0.92213">
        <ele>67.91</ele>
        <time>2015-10-03T12:31:01Z</time>
      </trkpt>
      <trkpt lat="44.46874" lon="0.92118">
        <ele>67.43</ele>
        <time>2015-10-03T12:31:20Z</time>
      </trkpt>
      <trkpt lat="44.46857" lon="0.92041">
        <ele>66.47</ele>
        <time>2015-10-03T12:31:36Z</time>
      </trkpt>
      <trkpt lat="44.46835" lon="0.91961">
        <ele>66.47</ele>
        <time>2015-10-03T12:31:53Z</time>
      </trkpt>
      <trkpt lat="44.46821" lon="0.91923">
        <ele>65.99</ele>
        <time>2015-10-03T12:32:03Z</time>
      </trkpt>
      <trkpt lat="44.46815" lon="0.91924">
        <ele>65.99</ele>
        <time>2015-10-03T12:32:05Z</time>
      </trkpt>
      <trkpt lat="44.46812" lon="0.91926">
        <ele>65.99</ele>
        <time>2015-10-03T12:32:06Z</time>
      </trkpt>
      <trkpt lat="44.46761" lon="0.91961">
        <ele>65.03</ele>
        <time>2015-10-03T12:32:22Z</time>
      </trkpt>
      <trkpt lat="44.46717" lon="0.91993">
        <ele>65.03</ele>
        <time>2015-10-03T12:32:36Z</time>
      </trkpt>
      <trkpt lat="44.4666" lon="0.92033">
        <ele>64.07</ele>
        <time>2015-10-03T12:32:54Z</time>
      </trkpt>
      <trkpt lat="44.46606" lon="0.92074">
        <ele>65.03</ele>
        <time>2015-10-03T12:33:12Z</time>
      </trkpt>
      <trkpt lat="44.46578" lon="0.92095">
        <ele>65.99</ele>
        <time>2015-10-03T12:33:25Z</time>
      </trkpt>
      <trkpt lat="44.46542" lon="0.92121">
        <ele>65.99</ele>
        <time>2015-10-03T12:33:38Z</time>
      </trkpt>
      <trkpt lat="44.46504" lon="0.92149">
        <ele>65.99</ele>
        <time>2015-10-03T12:33:51Z</time>
      </trkpt>
      <trkpt lat="44.46472" lon="0.92172">
        <ele>66.47</ele>
        <time>2015-10-03T12:34:02Z</time>
      </trkpt>
      <trkpt lat="44.46454" lon="0.92194">
        <ele>66.95</ele>
        <time>2015-10-03T12:34:11Z</time>
      </trkpt>
      <trkpt lat="44.4645" lon="0.92211">
        <ele>66.47</ele>
        <time>2015-10-03T12:34:16Z</time>
      </trkpt>
      <trkpt lat="44.46422" lon="0.92268">
        <ele>66.47</ele>
        <time>2015-10-03T12:34:32Z</time>
      </trkpt>
      <trkpt lat="44.46385" lon="0.92345">
        <ele>66.47</ele>
        <time>2015-10-03T12:34:54Z</time>
      </trkpt>
      <trkpt lat="44.46382" lon="0.92351">
        <ele>66.95</ele>
        <time>2015-10-03T12:34:56Z</time>
      </trkpt>
      <trkpt lat="44.46376" lon="0.92353">
        <ele>66.95</ele>
        <time>2015-10-03T12:35:00Z</time>
      </trkpt>
      <trkpt lat="44.46373" lon="0.92354">
        <ele>66.95</ele>
        <time>2015-10-03T12:35:02Z</time>
      </trkpt>
      <trkpt lat="44.46371" lon="0.92354">
        <ele>67.43</ele>
        <time>2015-10-03T12:35:15Z</time>
      </trkpt>
      <trkpt lat="44.46371" lon="0.92354">
        <ele>67.91</ele>
        <time>2015-10-03T12:35:30Z</time>
      </trkpt>
      <trkpt lat="44.46371" lon="0.92353">
        <ele>69.35</ele>
        <time>2015-10-03T12:35:54Z</time>
      </trkpt>
      <trkpt lat="44.46367" lon="0.92344">
        <ele>68.39</ele>
        <time>2015-10-03T12:36:19Z</time>
      </trkpt>
      <trkpt lat="44.46338" lon="0.92313">
        <ele>68.39</ele>
        <time>2015-10-03T12:36:32Z</time>
      </trkpt>
      <trkpt lat="44.46289" lon="0.92279">
        <ele>68.39</ele>
        <time>2015-10-03T12:36:48Z</time>
      </trkpt>
      <trkpt lat="44.46235" lon="0.92245">
        <ele>69.35</ele>
        <time>2015-10-03T12:37:05Z</time>
      </trkpt>
      <trkpt lat="44.4617" lon="0.92201">
        <ele>67.91</ele>
        <time>2015-10-03T12:37:26Z</time>
      </trkpt>
      <trkpt lat="44.46133" lon="0.92175">
        <ele>67.43</ele>
        <time>2015-10-03T12:37:38Z</time>
      </trkpt>
      <trkpt lat="44.46093" lon="0.92162">
        <ele>67.91</ele>
        <time>2015-10-03T12:37:51Z</time>
      </trkpt>
      <trkpt lat="44.46065" lon="0.92202">
        <ele>67.91</ele>
        <time>2015-10-03T12:38:05Z</time>
      </trkpt>
      <trkpt lat="44.46034" lon="0.9225">
        <ele>67.91</ele>
        <time>2015-10-03T12:38:21Z</time>
      </trkpt>
      <trkpt lat="44.45998" lon="0.92299">
        <ele>67.91</ele>
        <time>2015-10-03T12:38:38Z</time>
      </trkpt>
      <trkpt lat="44.45951" lon="0.92341">
        <ele>67.43</ele>
        <time>2015-10-03T12:38:58Z</time>
      </trkpt>
      <trkpt lat="44.4595" lon="0.92341">
        <ele>67.43</ele>
        <time>2015-10-03T12:38:59Z</time>
      </trkpt>
      <trkpt lat="44.45949" lon="0.9234">
        <ele>67.43</ele>
        <time>2015-10-03T12:39:00Z</time>
      </trkpt>
      <trkpt lat="44.45942" lon="0.9233">
        <ele>68.39</ele>
        <time>2015-10-03T12:39:10Z</time>
      </trkpt>
      <trkpt lat="44.45918" lon="0.9231">
        <ele>68.39</ele>
        <time>2015-10-03T12:39:24Z</time>
      </trkpt>
      <trkpt lat="44.4588" lon="0.92281">
        <ele>68.39</ele>
        <time>2015-10-03T12:39:42Z</time>
      </trkpt>
      <trkpt lat="44.45846" lon="0.92246">
        <ele>68.39</ele>
        <time>2015-10-03T12:39:59Z</time>
      </trkpt>
      <trkpt lat="44.4581" lon="0.92208">
        <ele>68.87</ele>
        <time>2015-10-03T12:40:16Z</time>
      </trkpt>
      <trkpt lat="44.45783" lon="0.92182">
        <ele>70.79</ele>
        <time>2015-10-03T12:40:30Z</time>
      </trkpt>
      <trkpt lat="44.45757" lon="0.92153">
        <ele>71.76</ele>
        <time>2015-10-03T12:40:44Z</time>
      </trkpt>
      <trkpt lat="44.45723" lon="0.92111">
        <ele>69.35</ele>
        <time>2015-10-03T12:40:57Z</time>
      </trkpt>
      <trkpt lat="44.45689" lon="0.92072">
        <ele>68.87</ele>
        <time>2015-10-03T12:41:11Z</time>
      </trkpt>
      <trkpt lat="44.45651" lon="0.92031">
        <ele>67.91</ele>
        <time>2015-10-03T12:41:28Z</time>
      </trkpt>
      <trkpt lat="44.45616" lon="0.91998">
        <ele>67.91</ele>
        <time>2015-10-03T12:41:43Z</time>
      </trkpt>
      <trkpt lat="44.45576" lon="0.91961">
        <ele>68.39</ele>
        <time>2015-10-03T12:42:00Z</time>
      </trkpt>
      <trkpt lat="44.45541" lon="0.91928">
        <ele>68.39</ele>
        <time>2015-10-03T12:42:15Z</time>
      </trkpt>
      <trkpt lat="44.4552" lon="0.91907">
        <ele>68.39</ele>
        <time>2015-10-03T12:42:27Z</time>
      </trkpt>
      <trkpt lat="44.45517" lon="0.91906">
        <ele>69.83</ele>
        <time>2015-10-03T12:42:40Z</time>
      </trkpt>
      <trkpt lat="44.45517" lon="0.91907">
        <ele>69.83</ele>
        <time>2015-10-03T12:43:01Z</time>
      </trkpt>
      <trkpt lat="44.45509" lon="0.91926">
        <ele>72.24</ele>
        <time>2015-10-03T12:43:10Z</time>
      </trkpt>
      <trkpt lat="44.45493" lon="0.91968">
        <ele>71.76</ele>
        <time>2015-10-03T12:43:23Z</time>
      </trkpt>
      <trkpt lat="44.45469" lon="0.92023">
        <ele>68.39</ele>
        <time>2015-10-03T12:43:39Z</time>
      </trkpt>
      <trkpt lat="44.45446" lon="0.92071">
        <ele>68.39</ele>
        <time>2015-10-03T12:43:53Z</time>
      </trkpt>
      <trkpt lat="44.45416" lon="0.92124">
        <ele>68.87</ele>
        <time>2015-10-03T12:44:10Z</time>
      </trkpt>
      <trkpt lat="44.45382" lon="0.92181">
        <ele>68.87</ele>
        <time>2015-10-03T12:44:27Z</time>
      </trkpt>
      <trkpt lat="44.45344" lon="0.92247">
        <ele>68.87</ele>
        <time>2015-10-03T12:44:47Z</time>
      </trkpt>
      <trkpt lat="44.45311" lon="0.92304">
        <ele>69.35</ele>
        <time>2015-10-03T12:45:04Z</time>
      </trkpt>
      <trkpt lat="44.45278" lon="0.92359">
        <ele>71.27</ele>
        <time>2015-10-03T12:45:21Z</time>
      </trkpt>
      <trkpt lat="44.45258" lon="0.92394">
        <ele>73.68</ele>
        <time>2015-10-03T12:45:36Z</time>
      </trkpt>
      <trkpt lat="44.45258" lon="0.92394">
        <ele>73.68</ele>
        <time>2015-10-03T12:45:59Z</time>
      </trkpt>
      <trkpt lat="44.45257" lon="0.92396">
        <ele>73.68</ele>
        <time>2015-10-03T12:46:08Z</time>
      </trkpt>
      <trkpt lat="44.45258" lon="0.92398">
        <ele>73.2</ele>
        <time>2015-10-03T12:46:09Z</time>
      </trkpt>
      <trkpt lat="44.45259" lon="0.924">
        <ele>73.68</ele>
        <time>2015-10-03T12:46:10Z</time>
      </trkpt>
      <trkpt lat="44.45261" lon="0.92402">
        <ele>73.2</ele>
        <time>2015-10-03T12:46:11Z</time>
      </trkpt>
      <trkpt lat="44.45263" lon="0.92403">
        <ele>73.2</ele>
        <time>2015-10-03T12:46:12Z</time>
      </trkpt>
      <trkpt lat="44.45266" lon="0.92405">
        <ele>73.2</ele>
        <time>2015-10-03T12:46:13Z</time>
      </trkpt>
      <trkpt lat="44.45269" lon="0.92407">
        <ele>73.2</ele>
        <time>2015-10-03T12:46:14Z</time>
      </trkpt>
      <trkpt lat="44.45272" lon="0.92409">
        <ele>73.2</ele>
        <time>2015-10-03T12:46:15Z</time>
      </trkpt>
      <trkpt lat="44.45317" lon="0.92442">
        <ele>73.68</ele>
        <time>2015-10-03T12:46:29Z</time>
      </trkpt>
      <trkpt lat="44.45333" lon="0.92459">
        <ele>73.2</ele>
        <time>2015-10-03T12:46:35Z</time>
      </trkpt>
      <trkpt lat="44.45333" lon="0.92462">
        <ele>73.2</ele>
        <time>2015-10-03T12:46:36Z</time>
      </trkpt>
      <trkpt lat="44.45331" lon="0.92467">
        <ele>73.2</ele>
        <time>2015-10-03T12:46:47Z</time>
      </trkpt>
      <trkpt lat="44.45331" lon="0.92469">
        <ele>73.2</ele>
        <time>2015-10-03T12:46:48Z</time>
      </trkpt>
      <trkpt lat="44.45309" lon="0.92514">
        <ele>74.16</ele>
        <time>2015-10-03T12:47:01Z</time>
      </trkpt>
      <trkpt lat="44.45285" lon="0.92558">
        <ele>74.64</ele>
        <time>2015-10-03T12:47:13Z</time>
      </trkpt>
      <trkpt lat="44.45267" lon="0.92605">
        <ele>75.12</ele>
        <time>2015-10-03T12:47:25Z</time>
      </trkpt>
      <trkpt lat="44.45247" lon="0.92657">
        <ele>75.6</ele>
        <time>2015-10-03T12:47:40Z</time>
      </trkpt>
      <trkpt lat="44.45228" lon="0.92706">
        <ele>76.56</ele>
        <time>2015-10-03T12:47:53Z</time>
      </trkpt>
      <trkpt lat="44.45202" lon="0.92766">
        <ele>77.04</ele>
        <time>2015-10-03T12:48:09Z</time>
      </trkpt>
      <trkpt lat="44.45167" lon="0.92822">
        <ele>78.97</ele>
        <time>2015-10-03T12:48:27Z</time>
      </trkpt>
      <trkpt lat="44.45141" lon="0.92865">
        <ele>79.45</ele>
        <time>2015-10-03T12:48:40Z</time>
      </trkpt>
      <trkpt lat="44.45107" lon="0.92904">
        <ele>79.93</ele>
        <time>2015-10-03T12:48:55Z</time>
      </trkpt>
      <trkpt lat="44.45072" lon="0.92939">
        <ele>80.89</ele>
        <time>2015-10-03T12:49:12Z</time>
      </trkpt>
      <trkpt lat="44.45069" lon="0.92942">
        <ele>80.89</ele>
        <time>2015-10-03T12:49:14Z</time>
      </trkpt>
      <trkpt lat="44.45063" lon="0.92944">
        <ele>81.85</ele>
        <time>2015-10-03T12:49:26Z</time>
      </trkpt>
      <trkpt lat="44.45063" lon="0.92944">
        <ele>82.33</ele>
        <time>2015-10-03T12:49:47Z</time>
      </trkpt>
      <trkpt lat="44.45062" lon="0.92944">
        <ele>82.33</ele>
        <time>2015-10-03T12:50:09Z</time>
      </trkpt>
      <trkpt lat="44.45062" lon="0.92944">
        <ele>82.81</ele>
        <time>2015-10-03T12:50:38Z</time>
      </trkpt>
      <trkpt lat="44.45062" lon="0.92945">
        <ele>83.29</ele>
        <time>2015-10-03T12:51:06Z</time>
      </trkpt>
      <trkpt lat="44.45063" lon="0.92945">
        <ele>83.29</ele>
        <time>2015-10-03T12:51:31Z</time>
      </trkpt>
      <trkpt lat="44.45064" lon="0.92945">
        <ele>82.81</ele>
        <time>2015-10-03T12:51:56Z</time>
      </trkpt>
      <trkpt lat="44.45064" lon="0.92945">
        <ele>82.33</ele>
        <time>2015-10-03T12:52:15Z</time>
      </trkpt>
      <trkpt lat="44.45064" lon="0.92945">
        <ele>82.33</ele>
        <time>2015-10-03T12:52:40Z</time>
      </trkpt>
      <trkpt lat="44.45063" lon="0.92945">
        <ele>82.33</ele>
        <time>2015-10-03T12:53:03Z</time>
      </trkpt>
      <trkpt lat="44.45063" lon="0.92945">
        <ele>82.33</ele>
        <time>2015-10-03T12:53:25Z</time>
      </trkpt>
      <trkpt lat="44.45062" lon="0.92945">
        <ele>82.33</ele>
        <time>2015-10-03T12:53:52Z</time>
      </trkpt>
      <trkpt lat="44.45061" lon="0.92944">
        <ele>82.81</ele>
        <time>2015-10-03T12:54:12Z</time>
      </trkpt>
      <trkpt lat="44.45062" lon="0.92944">
        <ele>82.33</ele>
        <time>2015-10-03T12:54:33Z</time>
      </trkpt>
      <trkpt lat="44.45062" lon="0.92943">
        <ele>82.33</ele>
        <time>2015-10-03T12:54:54Z</time>
      </trkpt>
      <trkpt lat="44.45062" lon="0.92944">
        <ele>82.33</ele>
        <time>2015-10-03T12:55:15Z</time>
      </trkpt>
      <trkpt lat="44.45044" lon="0.92921">
        <ele>82.81</ele>
        <time>2015-10-03T12:55:28Z</time>
      </trkpt>
      <trkpt lat="44.45006" lon="0.92879">
        <ele>82.33</ele>
        <time>2015-10-03T12:55:46Z</time>
      </trkpt>
      <trkpt lat="44.44971" lon="0.92844">
        <ele>81.85</ele>
        <time>2015-10-03T12:56:02Z</time>
      </trkpt>
      <trkpt lat="44.44938" lon="0.92825">
        <ele>80.89</ele>
        <time>2015-10-03T12:56:17Z</time>
      </trkpt>
      <trkpt lat="44.44896" lon="0.92812">
        <ele>79.93</ele>
        <time>2015-10-03T12:56:33Z</time>
      </trkpt>
      <trkpt lat="44.44845" lon="0.92793">
        <ele>77.52</ele>
        <time>2015-10-03T12:56:45Z</time>
      </trkpt>
      <trkpt lat="44.44841" lon="0.9279">
        <ele>78</ele>
        <time>2015-10-03T12:56:57Z</time>
      </trkpt>
      <trkpt lat="44.44841" lon="0.92789">
        <ele>78</ele>
        <time>2015-10-03T12:57:21Z</time>
      </trkpt>
      <trkpt lat="44.4484" lon="0.92789">
        <ele>78</ele>
        <time>2015-10-03T12:57:31Z</time>
      </trkpt>
      <trkpt lat="44.44836" lon="0.92797">
        <ele>78</ele>
        <time>2015-10-03T12:57:36Z</time>
      </trkpt>
      <trkpt lat="44.44818" lon="0.92834">
        <ele>79.93</ele>
        <time>2015-10-03T12:57:50Z</time>
      </trkpt>
      <trkpt lat="44.44816" lon="0.92841">
        <ele>81.37</ele>
        <time>2015-10-03T12:58:00Z</time>
      </trkpt>
      <trkpt lat="44.44814" lon="0.92892">
        <ele>82.81</ele>
        <time>2015-10-03T12:58:15Z</time>
      </trkpt>
      <trkpt lat="44.44809" lon="0.92933">
        <ele>84.73</ele>
        <time>2015-10-03T12:58:30Z</time>
      </trkpt>
      <trkpt lat="44.44802" lon="0.92969">
        <ele>86.66</ele>
        <time>2015-10-03T12:58:45Z</time>
      </trkpt>
      <trkpt lat="44.44799" lon="0.92973">
        <ele>87.14</ele>
        <time>2015-10-03T12:58:48Z</time>
      </trkpt>
      <trkpt lat="44.44797" lon="0.92974">
        <ele>87.14</ele>
        <time>2015-10-03T12:58:49Z</time>
      </trkpt>
      <trkpt lat="44.44787" lon="0.92979">
        <ele>89.54</ele>
        <time>2015-10-03T12:58:56Z</time>
      </trkpt>
      <trkpt lat="44.44786" lon="0.92978">
        <ele>89.54</ele>
        <time>2015-10-03T12:58:57Z</time>
      </trkpt>
      <trkpt lat="44.44784" lon="0.92978">
        <ele>90.02</ele>
        <time>2015-10-03T12:58:58Z</time>
      </trkpt>
      <trkpt lat="44.44769" lon="0.92979">
        <ele>91.94</ele>
        <time>2015-10-03T12:59:10Z</time>
      </trkpt>
      <trkpt lat="44.44768" lon="0.92979">
        <ele>91.94</ele>
        <time>2015-10-03T12:59:11Z</time>
      </trkpt>
      <trkpt lat="44.44766" lon="0.92979">
        <ele>92.42</ele>
        <time>2015-10-03T12:59:12Z</time>
      </trkpt>
      <trkpt lat="44.44765" lon="0.92979">
        <ele>92.9</ele>
        <time>2015-10-03T12:59:13Z</time>
      </trkpt>
      <trkpt lat="44.44764" lon="0.92979">
        <ele>92.9</ele>
        <time>2015-10-03T12:59:14Z</time>
      </trkpt>
      <trkpt lat="44.44762" lon="0.92978">
        <ele>92.9</ele>
        <time>2015-10-03T12:59:15Z</time>
      </trkpt>
      <trkpt lat="44.44758" lon="0.92979">
        <ele>93.87</ele>
        <time>2015-10-03T12:59:18Z</time>
      </trkpt>
      <trkpt lat="44.44756" lon="0.92979">
        <ele>94.35</ele>
        <time>2015-10-03T12:59:19Z</time>
      </trkpt>
      <trkpt lat="44.4475" lon="0.92978">
        <ele>94.83</ele>
        <time>2015-10-03T12:59:23Z</time>
      </trkpt>
      <trkpt lat="44.44748" lon="0.92978">
        <ele>94.83</ele>
        <time>2015-10-03T12:59:24Z</time>
      </trkpt>
      <trkpt lat="44.44747" lon="0.92979">
        <ele>94.83</ele>
        <time>2015-10-03T12:59:25Z</time>
      </trkpt>
      <trkpt lat="44.44743" lon="0.92983">
        <ele>93.87</ele>
        <time>2015-10-03T12:59:28Z</time>
      </trkpt>
      <trkpt lat="44.4474" lon="0.9299">
        <ele>93.87</ele>
        <time>2015-10-03T12:59:32Z</time>
      </trkpt>
      <trkpt lat="44.44734" lon="0.93014">
        <ele>97.23</ele>
        <time>2015-10-03T12:59:45Z</time>
      </trkpt>
      <trkpt lat="44.44726" lon="0.93045">
        <ele>105.4</ele>
        <time>2015-10-03T13:00:01Z</time>
      </trkpt>
      <trkpt lat="44.44729" lon="0.9307">
        <ele>108.77</ele>
        <time>2015-10-03T13:00:15Z</time>
      </trkpt>
      <trkpt lat="44.44734" lon="0.93079">
        <ele>110.21</ele>
        <time>2015-10-03T13:00:21Z</time>
      </trkpt>
      <trkpt lat="44.44734" lon="0.93102">
        <ele>112.61</ele>
        <time>2015-10-03T13:00:32Z</time>
      </trkpt>
      <trkpt lat="44.44731" lon="0.93122">
        <ele>110.69</ele>
        <time>2015-10-03T13:00:47Z</time>
      </trkpt>
      <trkpt lat="44.44732" lon="0.93123">
        <ele>110.21</ele>
        <time>2015-10-03T13:01:09Z</time>
      </trkpt>
      <trkpt lat="44.44733" lon="0.93123">
        <ele>109.25</ele>
        <time>2015-10-03T13:01:38Z</time>
      </trkpt>
      <trkpt lat="44.44732" lon="0.93122">
        <ele>108.77</ele>
        <time>2015-10-03T13:02:03Z</time>
      </trkpt>
      <trkpt lat="44.44731" lon="0.93121">
        <ele>108.29</ele>
        <time>2015-10-03T13:02:28Z</time>
      </trkpt>
      <trkpt lat="44.44732" lon="0.9312">
        <ele>108.77</ele>
        <time>2015-10-03T13:02:57Z</time>
      </trkpt>
      <trkpt lat="44.44732" lon="0.93121">
        <ele>109.25</ele>
        <time>2015-10-03T13:03:26Z</time>
      </trkpt>
      <trkpt lat="44.44731" lon="0.93122">
        <ele>109.25</ele>
        <time>2015-10-03T13:04:01Z</time>
      </trkpt>
      <trkpt lat="44.44731" lon="0.93121">
        <ele>110.21</ele>
        <time>2015-10-03T13:04:27Z</time>
      </trkpt>
      <trkpt lat="44.44731" lon="0.93122">
        <ele>110.21</ele>
        <time>2015-10-03T13:04:30Z</time>
      </trkpt>
      <trkpt lat="44.4473" lon="0.93131">
        <ele>109.73</ele>
        <time>2015-10-03T13:04:35Z</time>
      </trkpt>
      <trkpt lat="44.44717" lon="0.93167">
        <ele>110.21</ele>
        <time>2015-10-03T13:04:49Z</time>
      </trkpt>
      <trkpt lat="44.44703" lon="0.9316">
        <ele>111.17</ele>
        <time>2015-10-03T13:04:56Z</time>
      </trkpt>
      <trkpt lat="44.44671" lon="0.93142">
        <ele>114.05</ele>
        <time>2015-10-03T13:05:11Z</time>
      </trkpt>
      <trkpt lat="44.44639" lon="0.93122">
        <ele>116.46</ele>
        <time>2015-10-03T13:05:24Z</time>
      </trkpt>
      <trkpt lat="44.4463" lon="0.93115">
        <ele>116.46</ele>
        <time>2015-10-03T13:05:28Z</time>
      </trkpt>
      <trkpt lat="44.44625" lon="0.93108">
        <ele>116.94</ele>
        <time>2015-10-03T13:05:32Z</time>
      </trkpt>
      <trkpt lat="44.44598" lon="0.93086">
        <ele>116.94</ele>
        <time>2015-10-03T13:05:44Z</time>
      </trkpt>
      <trkpt lat="44.44594" lon="0.93083">
        <ele>116.46</ele>
        <time>2015-10-03T13:05:45Z</time>
      </trkpt>
      <trkpt lat="44.44568" lon="0.93071">
        <ele>112.61</ele>
        <time>2015-10-03T13:05:50Z</time>
      </trkpt>
      <trkpt lat="44.44533" lon="0.93073">
        <ele>110.69</ele>
        <time>2015-10-03T13:05:56Z</time>
      </trkpt>
      <trkpt lat="44.44512" lon="0.93084">
        <ele>111.17</ele>
        <time>2015-10-03T13:06:04Z</time>
      </trkpt>
      <trkpt lat="44.44488" lon="0.93116">
        <ele>115.5</ele>
        <time>2015-10-03T13:06:20Z</time>
      </trkpt>
      <trkpt lat="44.44469" lon="0.93145">
        <ele>117.42</ele>
        <time>2015-10-03T13:06:34Z</time>
      </trkpt>
      <trkpt lat="44.44465" lon="0.93158">
        <ele>118.86</ele>
        <time>2015-10-03T13:06:40Z</time>
      </trkpt>
      <trkpt lat="44.4446" lon="0.93185">
        <ele>119.34</ele>
        <time>2015-10-03T13:06:54Z</time>
      </trkpt>
      <trkpt lat="44.4446" lon="0.93197">
        <ele>117.9</ele>
        <time>2015-10-03T13:07:06Z</time>
      </trkpt>
      <trkpt lat="44.44482" lon="0.93229">
        <ele>114.53</ele>
        <time>2015-10-03T13:07:15Z</time>
      </trkpt>
      <trkpt lat="44.44486" lon="0.93234">
        <ele>114.53</ele>
        <time>2015-10-03T13:07:18Z</time>
      </trkpt>
      <trkpt lat="44.44501" lon="0.93269">
        <ele>117.42</ele>
        <time>2015-10-03T13:07:32Z</time>
      </trkpt>
      <trkpt lat="44.44504" lon="0.93286">
        <ele>119.34</ele>
        <time>2015-10-03T13:07:37Z</time>
      </trkpt>
      <trkpt lat="44.44511" lon="0.93313">
        <ele>119.82</ele>
        <time>2015-10-03T13:07:48Z</time>
      </trkpt>
      <trkpt lat="44.44516" lon="0.93328">
        <ele>120.3</ele>
        <time>2015-10-03T13:07:54Z</time>
      </trkpt>
      <trkpt lat="44.44522" lon="0.93339">
        <ele>119.34</ele>
        <time>2015-10-03T13:08:01Z</time>
      </trkpt>
      <trkpt lat="44.44522" lon="0.93343">
        <ele>119.34</ele>
        <time>2015-10-03T13:08:03Z</time>
      </trkpt>
      <trkpt lat="44.4452" lon="0.93345">
        <ele>118.86</ele>
        <time>2015-10-03T13:08:04Z</time>
      </trkpt>
      <trkpt lat="44.44519" lon="0.93348">
        <ele>118.86</ele>
        <time>2015-10-03T13:08:05Z</time>
      </trkpt>
      <trkpt lat="44.44519" lon="0.93352">
        <ele>118.38</ele>
        <time>2015-10-03T13:08:06Z</time>
      </trkpt>
      <trkpt lat="44.44518" lon="0.93357">
        <ele>117.9</ele>
        <time>2015-10-03T13:08:07Z</time>
      </trkpt>
      <trkpt lat="44.44518" lon="0.93362">
        <ele>117.9</ele>
        <time>2015-10-03T13:08:08Z</time>
      </trkpt>
      <trkpt lat="44.44518" lon="0.93367">
        <ele>117.42</ele>
        <time>2015-10-03T13:08:09Z</time>
      </trkpt>
      <trkpt lat="44.44518" lon="0.93373">
        <ele>117.42</ele>
        <time>2015-10-03T13:08:10Z</time>
      </trkpt>
      <trkpt lat="44.44518" lon="0.93379">
        <ele>116.94</ele>
        <time>2015-10-03T13:08:11Z</time>
      </trkpt>
      <trkpt lat="44.44515" lon="0.9343">
        <ele>117.9</ele>
        <time>2015-10-03T13:08:23Z</time>
      </trkpt>
      <trkpt lat="44.44513" lon="0.93431">
        <ele>117.9</ele>
        <time>2015-10-03T13:08:24Z</time>
      </trkpt>
      <trkpt lat="44.44513" lon="0.93431">
        <ele>118.86</ele>
        <time>2015-10-03T13:08:41Z</time>
      </trkpt>
      <trkpt lat="44.44513" lon="0.93431">
        <ele>118.38</ele>
        <time>2015-10-03T13:08:59Z</time>
      </trkpt>
      <trkpt lat="44.44512" lon="0.93431">
        <ele>118.38</ele>
        <time>2015-10-03T13:09:21Z</time>
      </trkpt>
      <trkpt lat="44.44513" lon="0.93431">
        <ele>118.86</ele>
        <time>2015-10-03T13:09:49Z</time>
      </trkpt>
      <trkpt lat="44.44513" lon="0.93433">
        <ele>118.38</ele>
        <time>2015-10-03T13:10:22Z</time>
      </trkpt>
      <trkpt lat="44.44513" lon="0.93432">
        <ele>118.86</ele>
        <time>2015-10-03T13:10:51Z</time>
      </trkpt>
      <trkpt lat="44.44513" lon="0.93432">
        <ele>118.38</ele>
        <time>2015-10-03T13:11:21Z</time>
      </trkpt>
      <trkpt lat="44.44513" lon="0.93431">
        <ele>118.86</ele>
        <time>2015-10-03T13:11:49Z</time>
      </trkpt>
      <trkpt lat="44.44513" lon="0.93432">
        <ele>119.34</ele>
        <time>2015-10-03T13:12:15Z</time>
      </trkpt>
      <trkpt lat="44.445" lon="0.93434">
        <ele>118.38</ele>
        <time>2015-10-03T13:12:37Z</time>
      </trkpt>
      <trkpt lat="44.44492" lon="0.93436">
        <ele>117.9</ele>
        <time>2015-10-03T13:12:39Z</time>
      </trkpt>
      <trkpt lat="44.44482" lon="0.93441">
        <ele>116.94</ele>
        <time>2015-10-03T13:12:41Z</time>
      </trkpt>
      <trkpt lat="44.44471" lon="0.9345">
        <ele>115.98</ele>
        <time>2015-10-03T13:12:43Z</time>
      </trkpt>
      <trkpt lat="44.44393" lon="0.93528">
        <ele>113.57</ele>
        <time>2015-10-03T13:12:58Z</time>
      </trkpt>
      <trkpt lat="44.44375" lon="0.93544">
        <ele>113.57</ele>
        <time>2015-10-03T13:13:02Z</time>
      </trkpt>
      <trkpt lat="44.44371" lon="0.93549">
        <ele>113.57</ele>
        <time>2015-10-03T13:13:03Z</time>
      </trkpt>
      <trkpt lat="44.44367" lon="0.93554">
        <ele>113.57</ele>
        <time>2015-10-03T13:13:04Z</time>
      </trkpt>
      <trkpt lat="44.44363" lon="0.93558">
        <ele>114.05</ele>
        <time>2015-10-03T13:13:05Z</time>
      </trkpt>
      <trkpt lat="44.4436" lon="0.93562">
        <ele>114.05</ele>
        <time>2015-10-03T13:13:06Z</time>
      </trkpt>
      <trkpt lat="44.44357" lon="0.93567">
        <ele>114.05</ele>
        <time>2015-10-03T13:13:07Z</time>
      </trkpt>
      <trkpt lat="44.44354" lon="0.93571">
        <ele>114.05</ele>
        <time>2015-10-03T13:13:08Z</time>
      </trkpt>
      <trkpt lat="44.44328" lon="0.93609">
        <ele>112.61</ele>
        <time>2015-10-03T13:13:16Z</time>
      </trkpt>
      <trkpt lat="44.44323" lon="0.93613">
        <ele>112.61</ele>
        <time>2015-10-03T13:13:17Z</time>
      </trkpt>
      <trkpt lat="44.44318" lon="0.93617">
        <ele>112.13</ele>
        <time>2015-10-03T13:13:18Z</time>
      </trkpt>
      <trkpt lat="44.44312" lon="0.9362">
        <ele>112.13</ele>
        <time>2015-10-03T13:13:19Z</time>
      </trkpt>
      <trkpt lat="44.44306" lon="0.93622">
        <ele>112.13</ele>
        <time>2015-10-03T13:13:20Z</time>
      </trkpt>
      <trkpt lat="44.44301" lon="0.93623">
        <ele>112.13</ele>
        <time>2015-10-03T13:13:21Z</time>
      </trkpt>
      <trkpt lat="44.44295" lon="0.93623">
        <ele>112.13</ele>
        <time>2015-10-03T13:13:22Z</time>
      </trkpt>
      <trkpt lat="44.4429" lon="0.93622">
        <ele>112.13</ele>
        <time>2015-10-03T13:13:23Z</time>
      </trkpt>
      <trkpt lat="44.4424" lon="0.93612">
        <ele>111.17</ele>
        <time>2015-10-03T13:13:36Z</time>
      </trkpt>
      <trkpt lat="44.44225" lon="0.93607">
        <ele>111.17</ele>
        <time>2015-10-03T13:13:40Z</time>
      </trkpt>
      <trkpt lat="44.44221" lon="0.93606">
        <ele>111.17</ele>
        <time>2015-10-03T13:13:41Z</time>
      </trkpt>
      <trkpt lat="44.44177" lon="0.93579">
        <ele>115.01</ele>
        <time>2015-10-03T13:13:57Z</time>
      </trkpt>
      <trkpt lat="44.44163" lon="0.93568">
        <ele>116.94</ele>
        <time>2015-10-03T13:14:07Z</time>
      </trkpt>
      <trkpt lat="44.44162" lon="0.93567">
        <ele>116.94</ele>
        <time>2015-10-03T13:14:08Z</time>
      </trkpt>
      <trkpt lat="44.44162" lon="0.93563">
        <ele>116.94</ele>
        <time>2015-10-03T13:14:10Z</time>
      </trkpt>
      <trkpt lat="44.44154" lon="0.9355">
        <ele>116.94</ele>
        <time>2015-10-03T13:14:22Z</time>
      </trkpt>
      <trkpt lat="44.44153" lon="0.93549">
        <ele>116.94</ele>
        <time>2015-10-03T13:14:23Z</time>
      </trkpt>
      <trkpt lat="44.44153" lon="0.93548">
        <ele>116.46</ele>
        <time>2015-10-03T13:14:24Z</time>
      </trkpt>
      <trkpt lat="44.44152" lon="0.93547">
        <ele>116.46</ele>
        <time>2015-10-03T13:14:25Z</time>
      </trkpt>
      <trkpt lat="44.44152" lon="0.93545">
        <ele>116.46</ele>
        <time>2015-10-03T13:14:26Z</time>
      </trkpt>
      <trkpt lat="44.44151" lon="0.93544">
        <ele>116.46</ele>
        <time>2015-10-03T13:14:27Z</time>
      </trkpt>
      <trkpt lat="44.44151" lon="0.93543">
        <ele>115.98</ele>
        <time>2015-10-03T13:14:28Z</time>
      </trkpt>
      <trkpt lat="44.44147" lon="0.93535">
        <ele>116.94</ele>
        <time>2015-10-03T13:14:35Z</time>
      </trkpt>
      <trkpt lat="44.44147" lon="0.93533">
        <ele>116.94</ele>
        <time>2015-10-03T13:14:36Z</time>
      </trkpt>
      <trkpt lat="44.44147" lon="0.93532">
        <ele>116.46</ele>
        <time>2015-10-03T13:14:37Z</time>
      </trkpt>
      <trkpt lat="44.44136" lon="0.93513">
        <ele>115.98</ele>
        <time>2015-10-03T13:14:52Z</time>
      </trkpt>
      <trkpt lat="44.44138" lon="0.93472">
        <ele>115.5</ele>
        <time>2015-10-03T13:15:06Z</time>
      </trkpt>
      <trkpt lat="44.44139" lon="0.93466">
        <ele>115.01</ele>
        <time>2015-10-03T13:15:08Z</time>
      </trkpt>
      <trkpt lat="44.44138" lon="0.93464">
        <ele>115.01</ele>
        <time>2015-10-03T13:15:09Z</time>
      </trkpt>
      <trkpt lat="44.44136" lon="0.93461">
        <ele>114.53</ele>
        <time>2015-10-03T13:15:10Z</time>
      </trkpt>
      <trkpt lat="44.44134" lon="0.9346">
        <ele>114.53</ele>
        <time>2015-10-03T13:15:11Z</time>
      </trkpt>
      <trkpt lat="44.44131" lon="0.93458">
        <ele>114.05</ele>
        <time>2015-10-03T13:15:12Z</time>
      </trkpt>
      <trkpt lat="44.44127" lon="0.93458">
        <ele>113.57</ele>
        <time>2015-10-03T13:15:13Z</time>
      </trkpt>
      <trkpt lat="44.44076" lon="0.93454">
        <ele>108.29</ele>
        <time>2015-10-03T13:15:26Z</time>
      </trkpt>
      <trkpt lat="44.4407" lon="0.93456">
        <ele>107.32</ele>
        <time>2015-10-03T13:15:28Z</time>
      </trkpt>
      <trkpt lat="44.44068" lon="0.93454">
        <ele>106.84</ele>
        <time>2015-10-03T13:15:29Z</time>
      </trkpt>
      <trkpt lat="44.44063" lon="0.93438">
        <ele>104.44</ele>
        <time>2015-10-03T13:15:32Z</time>
      </trkpt>
      <trkpt lat="44.44046" lon="0.934">
        <ele>99.15</ele>
        <time>2015-10-03T13:15:38Z</time>
      </trkpt>
      <trkpt lat="44.44037" lon="0.93377">
        <ele>95.79</ele>
        <time>2015-10-03T13:15:41Z</time>
      </trkpt>
      <trkpt lat="44.44036" lon="0.93372">
        <ele>95.31</ele>
        <time>2015-10-03T13:15:42Z</time>
      </trkpt>
      <trkpt lat="44.44037" lon="0.93367">
        <ele>94.35</ele>
        <time>2015-10-03T13:15:51Z</time>
      </trkpt>
      <trkpt lat="44.44037" lon="0.93368">
        <ele>93.39</ele>
        <time>2015-10-03T13:16:12Z</time>
      </trkpt>
      <trkpt lat="44.44037" lon="0.93369">
        <ele>94.35</ele>
        <time>2015-10-03T13:16:37Z</time>
      </trkpt>
      <trkpt lat="44.44036" lon="0.93369">
        <ele>94.35</ele>
        <time>2015-10-03T13:16:39Z</time>
      </trkpt>
      <trkpt lat="44.44049" lon="0.9337">
        <ele>95.79</ele>
        <time>2015-10-03T13:16:47Z</time>
      </trkpt>
      <trkpt lat="44.44051" lon="0.9337">
        <ele>95.79</ele>
        <time>2015-10-03T13:16:48Z</time>
      </trkpt>
      <trkpt lat="44.44053" lon="0.9337">
        <ele>96.27</ele>
        <time>2015-10-03T13:16:49Z</time>
      </trkpt>
      <trkpt lat="44.44055" lon="0.9337">
        <ele>96.27</ele>
        <time>2015-10-03T13:16:50Z</time>
      </trkpt>
      <trkpt lat="44.44057" lon="0.9337">
        <ele>96.27</ele>
        <time>2015-10-03T13:16:51Z</time>
      </trkpt>
      <trkpt lat="44.44059" lon="0.9337">
        <ele>96.27</ele>
        <time>2015-10-03T13:16:52Z</time>
      </trkpt>
      <trkpt lat="44.44061" lon="0.9337">
        <ele>96.27</ele>
        <time>2015-10-03T13:16:53Z</time>
      </trkpt>
      <trkpt lat="44.44063" lon="0.9337">
        <ele>96.27</ele>
        <time>2015-10-03T13:16:54Z</time>
      </trkpt>
      <trkpt lat="44.44065" lon="0.93369">
        <ele>96.27</ele>
        <time>2015-10-03T13:16:55Z</time>
      </trkpt>
      <trkpt lat="44.44067" lon="0.93369">
        <ele>96.75</ele>
        <time>2015-10-03T13:16:56Z</time>
      </trkpt>
      <trkpt lat="44.4407" lon="0.93368">
        <ele>96.75</ele>
        <time>2015-10-03T13:16:57Z</time>
      </trkpt>
      <trkpt lat="44.44072" lon="0.93367">
        <ele>96.75</ele>
        <time>2015-10-03T13:16:58Z</time>
      </trkpt>
      <trkpt lat="44.44112" lon="0.93342">
        <ele>99.15</ele>
        <time>2015-10-03T13:17:16Z</time>
      </trkpt>
      <trkpt lat="44.44145" lon="0.93323">
        <ele>101.08</ele>
        <time>2015-10-03T13:17:31Z</time>
      </trkpt>
      <trkpt lat="44.44173" lon="0.93321">
        <ele>103.48</ele>
        <time>2015-10-03T13:17:44Z</time>
      </trkpt>
      <trkpt lat="44.44173" lon="0.9332">
        <ele>103.48</ele>
        <time>2015-10-03T13:18:04Z</time>
      </trkpt>
      <trkpt lat="44.44173" lon="0.9332">
        <ele>103</ele>
        <time>2015-10-03T13:18:17Z</time>
      </trkpt>
      <trkpt lat="44.44172" lon="0.93318">
        <ele>103</ele>
        <time>2015-10-03T13:18:18Z</time>
      </trkpt>
      <trkpt lat="44.44168" lon="0.93309">
        <ele>101.56</ele>
        <time>2015-10-03T13:18:20Z</time>
      </trkpt>
      <trkpt lat="44.44163" lon="0.93295">
        <ele>100.6</ele>
        <time>2015-10-03T13:18:22Z</time>
      </trkpt>
      <trkpt lat="44.4416" lon="0.9326">
        <ele>97.71</ele>
        <time>2015-10-03T13:18:26Z</time>
      </trkpt>
      <trkpt lat="44.44163" lon="0.93225">
        <ele>95.31</ele>
        <time>2015-10-03T13:18:29Z</time>
      </trkpt>
      <trkpt lat="44.44164" lon="0.93203">
        <ele>93.87</ele>
        <time>2015-10-03T13:18:31Z</time>
      </trkpt>
      <trkpt lat="44.44162" lon="0.93182">
        <ele>92.42</ele>
        <time>2015-10-03T13:18:33Z</time>
      </trkpt>
      <trkpt lat="44.44159" lon="0.93172">
        <ele>91.46</ele>
        <time>2015-10-03T13:18:34Z</time>
      </trkpt>
      <trkpt lat="44.44154" lon="0.93152">
        <ele>90.98</ele>
        <time>2015-10-03T13:18:36Z</time>
      </trkpt>
      <trkpt lat="44.44144" lon="0.93106">
        <ele>90.02</ele>
        <time>2015-10-03T13:18:44Z</time>
      </trkpt>
      <trkpt lat="44.44131" lon="0.9306">
        <ele>90.98</ele>
        <time>2015-10-03T13:18:58Z</time>
      </trkpt>
      <trkpt lat="44.4412" lon="0.93017">
        <ele>94.83</ele>
        <time>2015-10-03T13:19:12Z</time>
      </trkpt>
      <trkpt lat="44.44109" lon="0.92972">
        <ele>96.75</ele>
        <time>2015-10-03T13:19:26Z</time>
      </trkpt>
      <trkpt lat="44.44102" lon="0.92945">
        <ele>96.75</ele>
        <time>2015-10-03T13:19:36Z</time>
      </trkpt>
      <trkpt lat="44.44101" lon="0.92944">
        <ele>96.75</ele>
        <time>2015-10-03T13:19:37Z</time>
      </trkpt>
      <trkpt lat="44.44099" lon="0.92942">
        <ele>96.75</ele>
        <time>2015-10-03T13:19:39Z</time>
      </trkpt>
      <trkpt lat="44.44098" lon="0.9294">
        <ele>96.75</ele>
        <time>2015-10-03T13:19:40Z</time>
      </trkpt>
      <trkpt lat="44.44097" lon="0.92938">
        <ele>96.75</ele>
        <time>2015-10-03T13:19:41Z</time>
      </trkpt>
      <trkpt lat="44.44078" lon="0.92906">
        <ele>96.75</ele>
        <time>2015-10-03T13:19:54Z</time>
      </trkpt>
      <trkpt lat="44.44049" lon="0.92859">
        <ele>98.67</ele>
        <time>2015-10-03T13:20:10Z</time>
      </trkpt>
      <trkpt lat="44.44041" lon="0.92846">
        <ele>100.11</ele>
        <time>2015-10-03T13:20:15Z</time>
      </trkpt>
      <trkpt lat="44.44031" lon="0.92844">
        <ele>101.08</ele>
        <time>2015-10-03T13:20:19Z</time>
      </trkpt>
      <trkpt lat="44.43998" lon="0.9285">
        <ele>105.88</ele>
        <time>2015-10-03T13:20:36Z</time>
      </trkpt>
      <trkpt lat="44.43997" lon="0.92836">
        <ele>108.29</ele>
        <time>2015-10-03T13:20:42Z</time>
      </trkpt>
      <trkpt lat="44.44002" lon="0.92825">
        <ele>109.25</ele>
        <time>2015-10-03T13:20:47Z</time>
      </trkpt>
      <trkpt lat="44.44006" lon="0.92808">
        <ele>111.17</ele>
        <time>2015-10-03T13:20:54Z</time>
      </trkpt>
      <trkpt lat="44.44011" lon="0.92779">
        <ele>114.05</ele>
        <time>2015-10-03T13:21:08Z</time>
      </trkpt>
      <trkpt lat="44.44011" lon="0.92777">
        <ele>114.05</ele>
        <time>2015-10-03T13:21:09Z</time>
      </trkpt>
      <trkpt lat="44.44007" lon="0.92761">
        <ele>115.5</ele>
        <time>2015-10-03T13:21:17Z</time>
      </trkpt>
      <trkpt lat="44.44007" lon="0.92753">
        <ele>116.46</ele>
        <time>2015-10-03T13:21:22Z</time>
      </trkpt>
      <trkpt lat="44.44012" lon="0.9273">
        <ele>116.46</ele>
        <time>2015-10-03T13:21:38Z</time>
      </trkpt>
      <trkpt lat="44.44012" lon="0.92724">
        <ele>115.98</ele>
        <time>2015-10-03T13:21:49Z</time>
      </trkpt>
      <trkpt lat="44.44011" lon="0.92723">
        <ele>115.98</ele>
        <time>2015-10-03T13:22:09Z</time>
      </trkpt>
      <trkpt lat="44.4401" lon="0.92723">
        <ele>116.46</ele>
        <time>2015-10-03T13:22:29Z</time>
      </trkpt>
      <trkpt lat="44.4401" lon="0.9272">
        <ele>116.46</ele>
        <time>2015-10-03T13:22:49Z</time>
      </trkpt>
      <trkpt lat="44.4401" lon="0.92721">
        <ele>116.46</ele>
        <time>2015-10-03T13:23:10Z</time>
      </trkpt>
      <trkpt lat="44.4401" lon="0.9272">
        <ele>117.42</ele>
        <time>2015-10-03T13:23:33Z</time>
      </trkpt>
      <trkpt lat="44.44011" lon="0.92719">
        <ele>117.42</ele>
        <time>2015-10-03T13:23:58Z</time>
      </trkpt>
      <trkpt lat="44.44011" lon="0.92718">
        <ele>116.46</ele>
        <time>2015-10-03T13:24:22Z</time>
      </trkpt>
      <trkpt lat="44.44011" lon="0.92719">
        <ele>115.01</ele>
        <time>2015-10-03T13:24:47Z</time>
      </trkpt>
      <trkpt lat="44.44011" lon="0.92719">
        <ele>114.05</ele>
        <time>2015-10-03T13:25:11Z</time>
      </trkpt>
      <trkpt lat="44.4401" lon="0.9272">
        <ele>115.01</ele>
        <time>2015-10-03T13:25:28Z</time>
      </trkpt>
      <trkpt lat="44.4401" lon="0.92721">
        <ele>115.5</ele>
        <time>2015-10-03T13:25:50Z</time>
      </trkpt>
      <trkpt lat="44.44011" lon="0.92722">
        <ele>115.01</ele>
        <time>2015-10-03T13:26:11Z</time>
      </trkpt>
      <trkpt lat="44.44011" lon="0.92721">
        <ele>114.53</ele>
        <time>2015-10-03T13:26:33Z</time>
      </trkpt>
      <trkpt lat="44.44007" lon="0.92718">
        <ele>115.01</ele>
        <time>2015-10-03T13:26:50Z</time>
      </trkpt>
      <trkpt lat="44.44005" lon="0.92721">
        <ele>113.09</ele>
        <time>2015-10-03T13:27:23Z</time>
      </trkpt>
      <trkpt lat="44.44006" lon="0.92722">
        <ele>114.05</ele>
        <time>2015-10-03T13:28:02Z</time>
      </trkpt>
      <trkpt lat="44.44006" lon="0.92723">
        <ele>115.98</ele>
        <time>2015-10-03T13:28:45Z</time>
      </trkpt>
      <trkpt lat="44.44006" lon="0.92722">
        <ele>116.46</ele>
        <time>2015-10-03T13:29:20Z</time>
      </trkpt>
      <trkpt lat="44.44007" lon="0.9272">
        <ele>116.46</ele>
        <time>2015-10-03T13:29:53Z</time>
      </trkpt>
      <trkpt lat="44.44002" lon="0.92705">
        <ele>116.46</ele>
        <time>2015-10-03T13:30:04Z</time>
      </trkpt>
      <trkpt lat="44.43987" lon="0.92665">
        <ele>114.05</ele>
        <time>2015-10-03T13:30:15Z</time>
      </trkpt>
      <trkpt lat="44.43958" lon="0.92596">
        <ele>111.65</ele>
        <time>2015-10-03T13:30:29Z</time>
      </trkpt>
      <trkpt lat="44.4394" lon="0.92511">
        <ele>109.73</ele>
        <time>2015-10-03T13:30:45Z</time>
      </trkpt>
      <trkpt lat="44.4392" lon="0.92441">
        <ele>111.65</ele>
        <time>2015-10-03T13:31:00Z</time>
      </trkpt>
      <trkpt lat="44.43908" lon="0.92414">
        <ele>114.53</ele>
        <time>2015-10-03T13:31:11Z</time>
      </trkpt>
      <trkpt lat="44.43908" lon="0.92415">
        <ele>115.5</ele>
        <time>2015-10-03T13:31:32Z</time>
      </trkpt>
      <trkpt lat="44.43908" lon="0.92416">
        <ele>114.53</ele>
        <time>2015-10-03T13:31:49Z</time>
      </trkpt>
      <trkpt lat="44.43908" lon="0.92416">
        <ele>114.05</ele>
        <time>2015-10-03T13:32:08Z</time>
      </trkpt>
      <trkpt lat="44.43908" lon="0.92415">
        <ele>114.05</ele>
        <time>2015-10-03T13:32:34Z</time>
      </trkpt>
      <trkpt lat="44.43908" lon="0.92414">
        <ele>114.05</ele>
        <time>2015-10-03T13:32:37Z</time>
      </trkpt>
      <trkpt lat="44.43909" lon="0.92412">
        <ele>114.05</ele>
        <time>2015-10-03T13:32:38Z</time>
      </trkpt>
      <trkpt lat="44.43924" lon="0.92397">
        <ele>113.57</ele>
        <time>2015-10-03T13:32:47Z</time>
      </trkpt>
      <trkpt lat="44.43926" lon="0.92395">
        <ele>113.57</ele>
        <time>2015-10-03T13:32:48Z</time>
      </trkpt>
      <trkpt lat="44.43927" lon="0.92392">
        <ele>113.57</ele>
        <time>2015-10-03T13:32:49Z</time>
      </trkpt>
      <trkpt lat="44.43926" lon="0.92388">
        <ele>113.57</ele>
        <time>2015-10-03T13:32:50Z</time>
      </trkpt>
      <trkpt lat="44.43926" lon="0.92385">
        <ele>114.05</ele>
        <time>2015-10-03T13:32:51Z</time>
      </trkpt>
      <trkpt lat="44.43926" lon="0.92383">
        <ele>114.05</ele>
        <time>2015-10-03T13:32:52Z</time>
      </trkpt>
      <trkpt lat="44.43925" lon="0.9238">
        <ele>114.05</ele>
        <time>2015-10-03T13:32:53Z</time>
      </trkpt>
      <trkpt lat="44.43924" lon="0.92377">
        <ele>114.53</ele>
        <time>2015-10-03T13:32:54Z</time>
      </trkpt>
      <trkpt lat="44.43923" lon="0.92374">
        <ele>114.53</ele>
        <time>2015-10-03T13:32:55Z</time>
      </trkpt>
      <trkpt lat="44.43922" lon="0.92371">
        <ele>115.01</ele>
        <time>2015-10-03T13:32:56Z</time>
      </trkpt>
      <trkpt lat="44.43921" lon="0.92367">
        <ele>115.5</ele>
        <time>2015-10-03T13:32:57Z</time>
      </trkpt>
      <trkpt lat="44.43911" lon="0.92331">
        <ele>118.86</ele>
        <time>2015-10-03T13:33:08Z</time>
      </trkpt>
      <trkpt lat="44.43901" lon="0.92293">
        <ele>121.26</ele>
        <time>2015-10-03T13:33:19Z</time>
      </trkpt>
      <trkpt lat="44.4389" lon="0.92245">
        <ele>122.71</ele>
        <time>2015-10-03T13:33:32Z</time>
      </trkpt>
      <trkpt lat="44.4388" lon="0.92207">
        <ele>122.71</ele>
        <time>2015-10-03T13:33:43Z</time>
      </trkpt>
      <trkpt lat="44.43865" lon="0.92171">
        <ele>122.22</ele>
        <time>2015-10-03T13:33:56Z</time>
      </trkpt>
      <trkpt lat="44.4386" lon="0.92161">
        <ele>122.22</ele>
        <time>2015-10-03T13:34:00Z</time>
      </trkpt>
      <trkpt lat="44.4386" lon="0.92159">
        <ele>122.22</ele>
        <time>2015-10-03T13:34:01Z</time>
      </trkpt>
      <trkpt lat="44.4386" lon="0.92157">
        <ele>122.22</ele>
        <time>2015-10-03T13:34:02Z</time>
      </trkpt>
      <trkpt lat="44.4386" lon="0.92156">
        <ele>123.67</ele>
        <time>2015-10-03T13:34:17Z</time>
      </trkpt>
      <trkpt lat="44.43859" lon="0.92157">
        <ele>123.67</ele>
        <time>2015-10-03T13:34:37Z</time>
      </trkpt>
      <trkpt lat="44.43859" lon="0.92157">
        <ele>123.67</ele>
        <time>2015-10-03T13:34:56Z</time>
      </trkpt>
      <trkpt lat="44.43859" lon="0.92155">
        <ele>123.67</ele>
        <time>2015-10-03T13:35:04Z</time>
      </trkpt>
      <trkpt lat="44.4386" lon="0.92153">
        <ele>123.19</ele>
        <time>2015-10-03T13:35:05Z</time>
      </trkpt>
      <trkpt lat="44.4386" lon="0.9215">
        <ele>123.19</ele>
        <time>2015-10-03T13:35:06Z</time>
      </trkpt>
      <trkpt lat="44.43862" lon="0.92148">
        <ele>123.19</ele>
        <time>2015-10-03T13:35:07Z</time>
      </trkpt>
      <trkpt lat="44.43864" lon="0.92145">
        <ele>123.19</ele>
        <time>2015-10-03T13:35:08Z</time>
      </trkpt>
      <trkpt lat="44.43866" lon="0.92142">
        <ele>123.19</ele>
        <time>2015-10-03T13:35:09Z</time>
      </trkpt>
      <trkpt lat="44.43868" lon="0.92138">
        <ele>123.19</ele>
        <time>2015-10-03T13:35:10Z</time>
      </trkpt>
      <trkpt lat="44.4387" lon="0.92135">
        <ele>123.19</ele>
        <time>2015-10-03T13:35:11Z</time>
      </trkpt>
      <trkpt lat="44.43873" lon="0.92131">
        <ele>122.71</ele>
        <time>2015-10-03T13:35:12Z</time>
      </trkpt>
      <trkpt lat="44.43876" lon="0.92127">
        <ele>122.71</ele>
        <time>2015-10-03T13:35:13Z</time>
      </trkpt>
      <trkpt lat="44.4391" lon="0.92073">
        <ele>121.26</ele>
        <time>2015-10-03T13:35:25Z</time>
      </trkpt>
      <trkpt lat="44.43966" lon="0.91985">
        <ele>117.42</ele>
        <time>2015-10-03T13:35:40Z</time>
      </trkpt>
      <trkpt lat="44.4405" lon="0.9188">
        <ele>112.13</ele>
        <time>2015-10-03T13:35:57Z</time>
      </trkpt>
      <trkpt lat="44.44139" lon="0.91812">
        <ele>108.77</ele>
        <time>2015-10-03T13:36:14Z</time>
      </trkpt>
      <trkpt lat="44.44171" lon="0.91792">
        <ele>107.81</ele>
        <time>2015-10-03T13:36:22Z</time>
      </trkpt>
      <trkpt lat="44.44172" lon="0.9179">
        <ele>107.32</ele>
        <time>2015-10-03T13:36:23Z</time>
      </trkpt>
      <trkpt lat="44.44172" lon="0.91788">
        <ele>105.88</ele>
        <time>2015-10-03T13:36:34Z</time>
      </trkpt>
      <trkpt lat="44.44171" lon="0.91789">
        <ele>108.29</ele>
        <time>2015-10-03T13:37:03Z</time>
      </trkpt>
      <trkpt lat="44.44172" lon="0.91789">
        <ele>108.29</ele>
        <time>2015-10-03T13:37:27Z</time>
      </trkpt>
      <trkpt lat="44.44172" lon="0.91789">
        <ele>108.29</ele>
        <time>2015-10-03T13:37:51Z</time>
      </trkpt>
      <trkpt lat="44.44172" lon="0.9179">
        <ele>107.32</ele>
        <time>2015-10-03T13:38:04Z</time>
      </trkpt>
      <trkpt lat="44.44173" lon="0.91792">
        <ele>106.36</ele>
        <time>2015-10-03T13:38:18Z</time>
      </trkpt>
      <trkpt lat="44.44173" lon="0.91791">
        <ele>106.36</ele>
        <time>2015-10-03T13:38:36Z</time>
      </trkpt>
      <trkpt lat="44.44174" lon="0.91792">
        <ele>107.32</ele>
        <time>2015-10-03T13:39:07Z</time>
      </trkpt>
      <trkpt lat="44.44174" lon="0.91791">
        <ele>106.84</ele>
        <time>2015-10-03T13:39:46Z</time>
      </trkpt>
      <trkpt lat="44.44173" lon="0.9179">
        <ele>105.88</ele>
        <time>2015-10-03T13:40:18Z</time>
      </trkpt>
      <trkpt lat="44.44173" lon="0.9179">
        <ele>105.88</ele>
        <time>2015-10-03T13:40:50Z</time>
      </trkpt>
      <trkpt lat="44.44173" lon="0.9179">
        <ele>106.84</ele>
        <time>2015-10-03T13:41:23Z</time>
      </trkpt>
      <trkpt lat="44.44176" lon="0.91792">
        <ele>107.81</ele>
        <time>2015-10-03T13:41:54Z</time>
      </trkpt>
      <trkpt lat="44.44176" lon="0.91791">
        <ele>109.25</ele>
        <time>2015-10-03T13:42:21Z</time>
      </trkpt>
      <trkpt lat="44.44175" lon="0.91791">
        <ele>108.29</ele>
        <time>2015-10-03T13:42:56Z</time>
      </trkpt>
      <trkpt lat="44.44175" lon="0.9179">
        <ele>108.29</ele>
        <time>2015-10-03T13:43:26Z</time>
      </trkpt>
      <trkpt lat="44.44176" lon="0.91792">
        <ele>107.81</ele>
        <time>2015-10-03T13:43:56Z</time>
      </trkpt>
      <trkpt lat="44.44174" lon="0.9179">
        <ele>108.77</ele>
        <time>2015-10-03T13:44:25Z</time>
      </trkpt>
      <trkpt lat="44.44174" lon="0.9179">
        <ele>108.29</ele>
        <time>2015-10-03T13:44:48Z</time>
      </trkpt>
      <trkpt lat="44.44173" lon="0.91789">
        <ele>106.36</ele>
        <time>2015-10-03T13:45:27Z</time>
      </trkpt>
      <trkpt lat="44.44173" lon="0.91789">
        <ele>106.84</ele>
        <time>2015-10-03T13:46:08Z</time>
      </trkpt>
      <trkpt lat="44.44174" lon="0.9179">
        <ele>105.4</ele>
        <time>2015-10-03T13:46:40Z</time>
      </trkpt>
      <trkpt lat="44.44174" lon="0.91792">
        <ele>106.36</ele>
        <time>2015-10-03T13:47:11Z</time>
      </trkpt>
      <trkpt lat="44.44173" lon="0.91791">
        <ele>105.4</ele>
        <time>2015-10-03T13:47:43Z</time>
      </trkpt>
      <trkpt lat="44.44173" lon="0.9179">
        <ele>104.92</ele>
        <time>2015-10-03T13:48:18Z</time>
      </trkpt>
      <trkpt lat="44.44173" lon="0.91789">
        <ele>105.88</ele>
        <time>2015-10-03T13:48:48Z</time>
      </trkpt>
      <trkpt lat="44.44173" lon="0.9179">
        <ele>106.36</ele>
        <time>2015-10-03T13:49:19Z</time>
      </trkpt>
      <trkpt lat="44.44173" lon="0.91789">
        <ele>106.84</ele>
        <time>2015-10-03T13:49:44Z</time>
      </trkpt>
      <trkpt lat="44.44174" lon="0.9179">
        <ele>106.84</ele>
        <time>2015-10-03T13:50:05Z</time>
      </trkpt>
      <trkpt lat="44.44174" lon="0.91791">
        <ele>106.84</ele>
        <time>2015-10-03T13:50:39Z</time>
      </trkpt>
      <trkpt lat="44.44175" lon="0.9179">
        <ele>106.84</ele>
        <time>2015-10-03T13:51:08Z</time>
      </trkpt>
      <trkpt lat="44.44175" lon="0.91792">
        <ele>105.88</ele>
        <time>2015-10-03T13:51:39Z</time>
      </trkpt>
      <trkpt lat="44.44175" lon="0.91793">
        <ele>104.92</ele>
        <time>2015-10-03T13:52:12Z</time>
      </trkpt>
      <trkpt lat="44.44174" lon="0.91791">
        <ele>106.36</ele>
        <time>2015-10-03T13:52:41Z</time>
      </trkpt>
      <trkpt lat="44.44173" lon="0.9179">
        <ele>106.84</ele>
        <time>2015-10-03T13:53:10Z</time>
      </trkpt>
      <trkpt lat="44.44172" lon="0.91789">
        <ele>106.36</ele>
        <time>2015-10-03T13:53:41Z</time>
      </trkpt>
      <trkpt lat="44.44171" lon="0.9179">
        <ele>104.92</ele>
        <time>2015-10-03T13:53:52Z</time>
      </trkpt>
      <trkpt lat="44.44172" lon="0.91791">
        <ele>105.4</ele>
        <time>2015-10-03T13:54:13Z</time>
      </trkpt>
      <trkpt lat="44.44172" lon="0.91787">
        <ele>104.92</ele>
        <time>2015-10-03T13:54:17Z</time>
      </trkpt>
      <trkpt lat="44.44171" lon="0.91785">
        <ele>104.92</ele>
        <time>2015-10-03T13:54:18Z</time>
      </trkpt>
      <trkpt lat="44.44171" lon="0.91783">
        <ele>104.92</ele>
        <time>2015-10-03T13:54:19Z</time>
      </trkpt>
      <trkpt lat="44.44171" lon="0.91774">
        <ele>104.92</ele>
        <time>2015-10-03T13:54:22Z</time>
      </trkpt>
      <trkpt lat="44.4417" lon="0.91758">
        <ele>105.4</ele>
        <time>2015-10-03T13:54:26Z</time>
      </trkpt>
      <trkpt lat="44.4414" lon="0.91725">
        <ele>106.36</ele>
        <time>2015-10-03T13:54:40Z</time>
      </trkpt>
      <trkpt lat="44.44117" lon="0.91702">
        <ele>109.73</ele>
        <time>2015-10-03T13:54:51Z</time>
      </trkpt>
      <trkpt lat="44.44085" lon="0.91673">
        <ele>113.09</ele>
        <time>2015-10-03T13:55:03Z</time>
      </trkpt>
      <trkpt lat="44.44058" lon="0.91649">
        <ele>114.53</ele>
        <time>2015-10-03T13:55:14Z</time>
      </trkpt>
      <trkpt lat="44.44028" lon="0.91624">
        <ele>114.05</ele>
        <time>2015-10-03T13:55:26Z</time>
      </trkpt>
      <trkpt lat="44.43976" lon="0.91588">
        <ele>112.61</ele>
        <time>2015-10-03T13:55:44Z</time>
      </trkpt>
      <trkpt lat="44.43943" lon="0.91566">
        <ele>112.61</ele>
        <time>2015-10-03T13:55:58Z</time>
      </trkpt>
      <trkpt lat="44.43909" lon="0.91544">
        <ele>115.5</ele>
        <time>2015-10-03T13:56:13Z</time>
      </trkpt>
      <trkpt lat="44.43886" lon="0.9153">
        <ele>119.82</ele>
        <time>2015-10-03T13:56:24Z</time>
      </trkpt>
      <trkpt lat="44.43877" lon="0.91527">
        <ele>118.38</ele>
        <time>2015-10-03T13:56:29Z</time>
      </trkpt>
      <trkpt lat="44.43852" lon="0.91555">
        <ele>115.98</ele>
        <time>2015-10-03T13:56:44Z</time>
      </trkpt>
      <trkpt lat="44.43829" lon="0.91584">
        <ele>116.46</ele>
        <time>2015-10-03T13:56:59Z</time>
      </trkpt>
      <trkpt lat="44.4381" lon="0.91605">
        <ele>118.38</ele>
        <time>2015-10-03T13:57:12Z</time>
      </trkpt>
      <trkpt lat="44.43788" lon="0.9164">
        <ele>120.78</ele>
        <time>2015-10-03T13:57:29Z</time>
      </trkpt>
      <trkpt lat="44.43774" lon="0.91673">
        <ele>121.26</ele>
        <time>2015-10-03T13:57:43Z</time>
      </trkpt>
      <trkpt lat="44.43769" lon="0.91692">
        <ele>121.26</ele>
        <time>2015-10-03T13:57:50Z</time>
      </trkpt>
      <trkpt lat="44.43766" lon="0.91715">
        <ele>123.19</ele>
        <time>2015-10-03T13:57:59Z</time>
      </trkpt>
      <trkpt lat="44.43764" lon="0.91753">
        <ele>124.15</ele>
        <time>2015-10-03T13:58:12Z</time>
      </trkpt>
      <trkpt lat="44.43763" lon="0.91801">
        <ele>124.63</ele>
        <time>2015-10-03T13:58:27Z</time>
      </trkpt>
      <trkpt lat="44.43758" lon="0.91841">
        <ele>126.55</ele>
        <time>2015-10-03T13:58:41Z</time>
      </trkpt>
      <trkpt lat="44.43762" lon="0.91876">
        <ele>125.11</ele>
        <time>2015-10-03T13:58:52Z</time>
      </trkpt>
      <trkpt lat="44.43769" lon="0.91918">
        <ele>125.59</ele>
        <time>2015-10-03T13:59:05Z</time>
      </trkpt>
      <trkpt lat="44.43778" lon="0.91972">
        <ele>125.59</ele>
        <time>2015-10-03T13:59:21Z</time>
      </trkpt>
      <trkpt lat="44.43786" lon="0.92024">
        <ele>124.63</ele>
        <time>2015-10-03T13:59:36Z</time>
      </trkpt>
      <trkpt lat="44.43798" lon="0.9207">
        <ele>123.19</ele>
        <time>2015-10-03T13:59:50Z</time>
      </trkpt>
      <trkpt lat="44.43797" lon="0.92078">
        <ele>122.22</ele>
        <time>2015-10-03T14:00:03Z</time>
      </trkpt>
      <trkpt lat="44.43797" lon="0.92079">
        <ele>122.71</ele>
        <time>2015-10-03T14:00:24Z</time>
      </trkpt>
      <trkpt lat="44.43797" lon="0.92079">
        <ele>123.19</ele>
        <time>2015-10-03T14:00:40Z</time>
      </trkpt>
      <trkpt lat="44.43796" lon="0.9208">
        <ele>123.19</ele>
        <time>2015-10-03T14:00:58Z</time>
      </trkpt>
      <trkpt lat="44.43796" lon="0.92081">
        <ele>123.67</ele>
        <time>2015-10-03T14:01:17Z</time>
      </trkpt>
      <trkpt lat="44.43796" lon="0.9208">
        <ele>122.71</ele>
        <time>2015-10-03T14:01:38Z</time>
      </trkpt>
      <trkpt lat="44.43794" lon="0.9208">
        <ele>122.71</ele>
        <time>2015-10-03T14:01:45Z</time>
      </trkpt>
      <trkpt lat="44.43785" lon="0.92074">
        <ele>122.71</ele>
        <time>2015-10-03T14:01:51Z</time>
      </trkpt>
      <trkpt lat="44.43745" lon="0.92043">
        <ele>121.26</ele>
        <time>2015-10-03T14:02:02Z</time>
      </trkpt>
      <trkpt lat="44.43675" lon="0.91967">
        <ele>115.98</ele>
        <time>2015-10-03T14:02:15Z</time>
      </trkpt>
      <trkpt lat="44.43656" lon="0.91944">
        <ele>114.53</ele>
        <time>2015-10-03T14:02:18Z</time>
      </trkpt>
      <trkpt lat="44.43651" lon="0.91935">
        <ele>114.53</ele>
        <time>2015-10-03T14:02:19Z</time>
      </trkpt>
      <trkpt lat="44.43614" lon="0.91874">
        <ele>117.42</ele>
        <time>2015-10-03T14:02:29Z</time>
      </trkpt>
      <trkpt lat="44.43607" lon="0.91864">
        <ele>117.42</ele>
        <time>2015-10-03T14:02:31Z</time>
      </trkpt>
      <trkpt lat="44.43575" lon="0.91809">
        <ele>115.01</ele>
        <time>2015-10-03T14:02:41Z</time>
      </trkpt>
      <trkpt lat="44.43571" lon="0.91802">
        <ele>115.01</ele>
        <time>2015-10-03T14:02:42Z</time>
      </trkpt>
      <trkpt lat="44.43515" lon="0.91689">
        <ele>108.77</ele>
        <time>2015-10-03T14:02:57Z</time>
      </trkpt>
      <trkpt lat="44.43482" lon="0.91574">
        <ele>104.44</ele>
        <time>2015-10-03T14:03:11Z</time>
      </trkpt>
      <trkpt lat="44.43479" lon="0.91561">
        <ele>104.44</ele>
        <time>2015-10-03T14:03:13Z</time>
      </trkpt>
      <trkpt lat="44.43477" lon="0.91556">
        <ele>104.44</ele>
        <time>2015-10-03T14:03:14Z</time>
      </trkpt>
      <trkpt lat="44.43474" lon="0.91553">
        <ele>103.96</ele>
        <time>2015-10-03T14:03:15Z</time>
      </trkpt>
      <trkpt lat="44.43472" lon="0.9155">
        <ele>103.96</ele>
        <time>2015-10-03T14:03:16Z</time>
      </trkpt>
      <trkpt lat="44.4347" lon="0.91549">
        <ele>103.96</ele>
        <time>2015-10-03T14:03:17Z</time>
      </trkpt>
      <trkpt lat="44.43468" lon="0.91549">
        <ele>103.96</ele>
        <time>2015-10-03T14:03:18Z</time>
      </trkpt>
      <trkpt lat="44.43466" lon="0.9155">
        <ele>103.96</ele>
        <time>2015-10-03T14:03:19Z</time>
      </trkpt>
      <trkpt lat="44.43465" lon="0.91552">
        <ele>103.48</ele>
        <time>2015-10-03T14:03:20Z</time>
      </trkpt>
      <trkpt lat="44.43464" lon="0.91553">
        <ele>103.48</ele>
        <time>2015-10-03T14:03:21Z</time>
      </trkpt>
      <trkpt lat="44.43462" lon="0.91554">
        <ele>103.48</ele>
        <time>2015-10-03T14:03:22Z</time>
      </trkpt>
      <trkpt lat="44.43461" lon="0.91555">
        <ele>103.48</ele>
        <time>2015-10-03T14:03:23Z</time>
      </trkpt>
      <trkpt lat="44.43458" lon="0.91557">
        <ele>103.96</ele>
        <time>2015-10-03T14:03:36Z</time>
      </trkpt>
      <trkpt lat="44.4346" lon="0.91559">
        <ele>103.48</ele>
        <time>2015-10-03T14:03:54Z</time>
      </trkpt>
      <trkpt lat="44.43461" lon="0.91558">
        <ele>103.48</ele>
        <time>2015-10-03T14:04:03Z</time>
      </trkpt>
      <trkpt lat="44.43462" lon="0.91557">
        <ele>103.48</ele>
        <time>2015-10-03T14:04:04Z</time>
      </trkpt>
      <trkpt lat="44.43464" lon="0.91554">
        <ele>103.48</ele>
        <time>2015-10-03T14:04:18Z</time>
      </trkpt>
      <trkpt lat="44.43464" lon="0.91556">
        <ele>103.96</ele>
        <time>2015-10-03T14:04:36Z</time>
      </trkpt>
      <trkpt lat="44.43463" lon="0.91558">
        <ele>104.92</ele>
        <time>2015-10-03T14:04:53Z</time>
      </trkpt>
      <trkpt lat="44.43463" lon="0.91559">
        <ele>104.44</ele>
        <time>2015-10-03T14:05:11Z</time>
      </trkpt>
      <trkpt lat="44.43462" lon="0.91559">
        <ele>104.44</ele>
        <time>2015-10-03T14:05:16Z</time>
      </trkpt>
      <trkpt lat="44.43433" lon="0.91583">
        <ele>103.48</ele>
        <time>2015-10-03T14:05:28Z</time>
      </trkpt>
      <trkpt lat="44.43396" lon="0.91612">
        <ele>103.48</ele>
        <time>2015-10-03T14:05:43Z</time>
      </trkpt>
      <trkpt lat="44.43346" lon="0.91639">
        <ele>104.44</ele>
        <time>2015-10-03T14:06:01Z</time>
      </trkpt>
      <trkpt lat="44.43309" lon="0.91654">
        <ele>105.88</ele>
        <time>2015-10-03T14:06:14Z</time>
      </trkpt>
      <trkpt lat="44.43271" lon="0.91669">
        <ele>108.77</ele>
        <time>2015-10-03T14:06:29Z</time>
      </trkpt>
      <trkpt lat="44.43231" lon="0.91705">
        <ele>108.77</ele>
        <time>2015-10-03T14:06:44Z</time>
      </trkpt>
      <trkpt lat="44.43213" lon="0.91719">
        <ele>107.81</ele>
        <time>2015-10-03T14:06:49Z</time>
      </trkpt>
      <trkpt lat="44.43197" lon="0.91728">
        <ele>107.32</ele>
        <time>2015-10-03T14:06:53Z</time>
      </trkpt>
      <trkpt lat="44.43142" lon="0.9175">
        <ele>107.81</ele>
        <time>2015-10-03T14:07:08Z</time>
      </trkpt>
      <trkpt lat="44.43138" lon="0.91753">
        <ele>107.81</ele>
        <time>2015-10-03T14:07:09Z</time>
      </trkpt>
      <trkpt lat="44.43124" lon="0.91765">
        <ele>108.29</ele>
        <time>2015-10-03T14:07:13Z</time>
      </trkpt>
      <trkpt lat="44.43092" lon="0.91799">
        <ele>108.29</ele>
        <time>2015-10-03T14:07:23Z</time>
      </trkpt>
      <trkpt lat="44.43048" lon="0.91825">
        <ele>107.32</ele>
        <time>2015-10-03T14:07:35Z</time>
      </trkpt>
      <trkpt lat="44.43006" lon="0.91846">
        <ele>106.36</ele>
        <time>2015-10-03T14:07:45Z</time>
      </trkpt>
      <trkpt lat="44.43002" lon="0.91849">
        <ele>105.88</ele>
        <time>2015-10-03T14:07:46Z</time>
      </trkpt>
      <trkpt lat="44.42989" lon="0.91858">
        <ele>104.92</ele>
        <time>2015-10-03T14:07:49Z</time>
      </trkpt>
      <trkpt lat="44.42985" lon="0.91861">
        <ele>104.92</ele>
        <time>2015-10-03T14:07:50Z</time>
      </trkpt>
      <trkpt lat="44.42968" lon="0.91875">
        <ele>104.44</ele>
        <time>2015-10-03T14:07:54Z</time>
      </trkpt>
      <trkpt lat="44.4296" lon="0.91882">
        <ele>104.44</ele>
        <time>2015-10-03T14:07:56Z</time>
      </trkpt>
      <trkpt lat="44.42948" lon="0.91892">
        <ele>104.44</ele>
        <time>2015-10-03T14:07:59Z</time>
      </trkpt>
      <trkpt lat="44.42912" lon="0.91923">
        <ele>103.96</ele>
        <time>2015-10-03T14:08:08Z</time>
      </trkpt>
      <trkpt lat="44.42904" lon="0.91931">
        <ele>103.96</ele>
        <time>2015-10-03T14:08:10Z</time>
      </trkpt>
      <trkpt lat="44.42838" lon="0.91988">
        <ele>103.48</ele>
        <time>2015-10-03T14:08:26Z</time>
      </trkpt>
      <trkpt lat="44.42807" lon="0.92018">
        <ele>103.48</ele>
        <time>2015-10-03T14:08:34Z</time>
      </trkpt>
      <trkpt lat="44.42805" lon="0.92023">
        <ele>103.48</ele>
        <time>2015-10-03T14:08:35Z</time>
      </trkpt>
      <trkpt lat="44.42802" lon="0.92029">
        <ele>103.48</ele>
        <time>2015-10-03T14:08:36Z</time>
      </trkpt>
      <trkpt lat="44.428" lon="0.92034">
        <ele>103.48</ele>
        <time>2015-10-03T14:08:37Z</time>
      </trkpt>
      <trkpt lat="44.42797" lon="0.92039">
        <ele>103.48</ele>
        <time>2015-10-03T14:08:38Z</time>
      </trkpt>
      <trkpt lat="44.42788" lon="0.9206">
        <ele>103.48</ele>
        <time>2015-10-03T14:08:42Z</time>
      </trkpt>
      <trkpt lat="44.42749" lon="0.92144">
        <ele>103</ele>
        <time>2015-10-03T14:08:58Z</time>
      </trkpt>
      <trkpt lat="44.42724" lon="0.92198">
        <ele>102.52</ele>
        <time>2015-10-03T14:09:08Z</time>
      </trkpt>
      <trkpt lat="44.42718" lon="0.92216">
        <ele>103</ele>
        <time>2015-10-03T14:09:11Z</time>
      </trkpt>
      <trkpt lat="44.42716" lon="0.92228">
        <ele>103</ele>
        <time>2015-10-03T14:09:13Z</time>
      </trkpt>
      <trkpt lat="44.42715" lon="0.92234">
        <ele>103</ele>
        <time>2015-10-03T14:09:14Z</time>
      </trkpt>
      <trkpt lat="44.42714" lon="0.9224">
        <ele>103</ele>
        <time>2015-10-03T14:09:15Z</time>
      </trkpt>
      <trkpt lat="44.42712" lon="0.92246">
        <ele>103.48</ele>
        <time>2015-10-03T14:09:16Z</time>
      </trkpt>
      <trkpt lat="44.42711" lon="0.92252">
        <ele>103.48</ele>
        <time>2015-10-03T14:09:17Z</time>
      </trkpt>
      <trkpt lat="44.42709" lon="0.92257">
        <ele>103.48</ele>
        <time>2015-10-03T14:09:18Z</time>
      </trkpt>
      <trkpt lat="44.42706" lon="0.92268">
        <ele>103.48</ele>
        <time>2015-10-03T14:09:20Z</time>
      </trkpt>
      <trkpt lat="44.42702" lon="0.92278">
        <ele>103.48</ele>
        <time>2015-10-03T14:09:22Z</time>
      </trkpt>
      <trkpt lat="44.42682" lon="0.92342">
        <ele>104.92</ele>
        <time>2015-10-03T14:09:36Z</time>
      </trkpt>
      <trkpt lat="44.42675" lon="0.92411">
        <ele>106.84</ele>
        <time>2015-10-03T14:09:51Z</time>
      </trkpt>
      <trkpt lat="44.42671" lon="0.92464">
        <ele>106.84</ele>
        <time>2015-10-03T14:10:04Z</time>
      </trkpt>
      <trkpt lat="44.42652" lon="0.92527">
        <ele>108.29</ele>
        <time>2015-10-03T14:10:19Z</time>
      </trkpt>
      <trkpt lat="44.42632" lon="0.92589">
        <ele>109.73</ele>
        <time>2015-10-03T14:10:33Z</time>
      </trkpt>
      <trkpt lat="44.42623" lon="0.92615">
        <ele>110.69</ele>
        <time>2015-10-03T14:10:44Z</time>
      </trkpt>
      <trkpt lat="44.42623" lon="0.92615">
        <ele>110.69</ele>
        <time>2015-10-03T14:10:58Z</time>
      </trkpt>
      <trkpt lat="44.42623" lon="0.92616">
        <ele>111.17</ele>
        <time>2015-10-03T14:11:20Z</time>
      </trkpt>
      <trkpt lat="44.42622" lon="0.92617">
        <ele>111.65</ele>
        <time>2015-10-03T14:11:34Z</time>
      </trkpt>
      <trkpt lat="44.42621" lon="0.92618">
        <ele>111.65</ele>
        <time>2015-10-03T14:11:35Z</time>
      </trkpt>
      <trkpt lat="44.42619" lon="0.92617">
        <ele>111.65</ele>
        <time>2015-10-03T14:11:36Z</time>
      </trkpt>
      <trkpt lat="44.42616" lon="0.92617">
        <ele>111.65</ele>
        <time>2015-10-03T14:11:37Z</time>
      </trkpt>
      <trkpt lat="44.42612" lon="0.92617">
        <ele>111.65</ele>
        <time>2015-10-03T14:11:38Z</time>
      </trkpt>
      <trkpt lat="44.4258" lon="0.92617">
        <ele>112.13</ele>
        <time>2015-10-03T14:11:45Z</time>
      </trkpt>
      <trkpt lat="44.42575" lon="0.92617">
        <ele>112.13</ele>
        <time>2015-10-03T14:11:46Z</time>
      </trkpt>
      <trkpt lat="44.4257" lon="0.92616">
        <ele>112.13</ele>
        <time>2015-10-03T14:11:47Z</time>
      </trkpt>
      <trkpt lat="44.4253" lon="0.92614">
        <ele>113.09</ele>
        <time>2015-10-03T14:11:56Z</time>
      </trkpt>
      <trkpt lat="44.42529" lon="0.92615">
        <ele>112.61</ele>
        <time>2015-10-03T14:12:06Z</time>
      </trkpt>
      <trkpt lat="44.42529" lon="0.92615">
        <ele>114.05</ele>
        <time>2015-10-03T14:12:21Z</time>
      </trkpt>
      <trkpt lat="44.42526" lon="0.92626">
        <ele>114.05</ele>
        <time>2015-10-03T14:12:25Z</time>
      </trkpt>
      <trkpt lat="44.42511" lon="0.92663">
        <ele>114.53</ele>
        <time>2015-10-03T14:12:35Z</time>
      </trkpt>
      <trkpt lat="44.42483" lon="0.92729">
        <ele>115.98</ele>
        <time>2015-10-03T14:12:53Z</time>
      </trkpt>
      <trkpt lat="44.42461" lon="0.92787">
        <ele>116.46</ele>
        <time>2015-10-03T14:13:09Z</time>
      </trkpt>
      <trkpt lat="44.42443" lon="0.92824">
        <ele>118.86</ele>
        <time>2015-10-03T14:13:20Z</time>
      </trkpt>
      <trkpt lat="44.42414" lon="0.92862">
        <ele>123.67</ele>
        <time>2015-10-03T14:13:35Z</time>
      </trkpt>
      <trkpt lat="44.42389" lon="0.92894">
        <ele>126.55</ele>
        <time>2015-10-03T14:13:48Z</time>
      </trkpt>
      <trkpt lat="44.42366" lon="0.92918">
        <ele>127.51</ele>
        <time>2015-10-03T14:14:00Z</time>
      </trkpt>
      <trkpt lat="44.42339" lon="0.92939">
        <ele>127.51</ele>
        <time>2015-10-03T14:14:12Z</time>
      </trkpt>
      <trkpt lat="44.42314" lon="0.92967">
        <ele>128.47</ele>
        <time>2015-10-03T14:14:23Z</time>
      </trkpt>
      <trkpt lat="44.42293" lon="0.93004">
        <ele>133.28</ele>
        <time>2015-10-03T14:14:34Z</time>
      </trkpt>
      <trkpt lat="44.42278" lon="0.93038">
        <ele>136.16</ele>
        <time>2015-10-03T14:14:44Z</time>
      </trkpt>
      <trkpt lat="44.42247" lon="0.93071">
        <ele>139.53</ele>
        <time>2015-10-03T14:14:58Z</time>
      </trkpt>
      <trkpt lat="44.42213" lon="0.93096">
        <ele>140.49</ele>
        <time>2015-10-03T14:15:10Z</time>
      </trkpt>
      <trkpt lat="44.42182" lon="0.93119">
        <ele>139.05</ele>
        <time>2015-10-03T14:15:22Z</time>
      </trkpt>
      <trkpt lat="44.4218" lon="0.9312">
        <ele>138.57</ele>
        <time>2015-10-03T14:15:23Z</time>
      </trkpt>
      <trkpt lat="44.42165" lon="0.93143">
        <ele>132.32</ele>
        <time>2015-10-03T14:15:33Z</time>
      </trkpt>
      <trkpt lat="44.42139" lon="0.93178">
        <ele>128.95</ele>
        <time>2015-10-03T14:15:42Z</time>
      </trkpt>
      <trkpt lat="44.42111" lon="0.93212">
        <ele>127.03</ele>
        <time>2015-10-03T14:15:49Z</time>
      </trkpt>
      <trkpt lat="44.42096" lon="0.9324">
        <ele>126.07</ele>
        <time>2015-10-03T14:15:55Z</time>
      </trkpt>
      <trkpt lat="44.42101" lon="0.93255">
        <ele>124.15</ele>
        <time>2015-10-03T14:16:05Z</time>
      </trkpt>
      <trkpt lat="44.421" lon="0.93257">
        <ele>121.74</ele>
        <time>2015-10-03T14:16:22Z</time>
      </trkpt>
      <trkpt lat="44.42099" lon="0.93258">
        <ele>120.3</ele>
        <time>2015-10-03T14:16:41Z</time>
      </trkpt>
      <trkpt lat="44.421" lon="0.93258">
        <ele>118.38</ele>
        <time>2015-10-03T14:17:03Z</time>
      </trkpt>
      <trkpt lat="44.421" lon="0.93257">
        <ele>116.94</ele>
        <time>2015-10-03T14:17:29Z</time>
      </trkpt>
      <trkpt lat="44.421" lon="0.93257">
        <ele>117.42</ele>
        <time>2015-10-03T14:17:50Z</time>
      </trkpt>
      <trkpt lat="44.42101" lon="0.93257">
        <ele>116.94</ele>
        <time>2015-10-03T14:18:14Z</time>
      </trkpt>
      <trkpt lat="44.421" lon="0.93257">
        <ele>116.94</ele>
        <time>2015-10-03T14:18:37Z</time>
      </trkpt>
      <trkpt lat="44.42099" lon="0.93256">
        <ele>116.94</ele>
        <time>2015-10-03T14:19:04Z</time>
      </trkpt>
      <trkpt lat="44.42099" lon="0.93256">
        <ele>117.42</ele>
        <time>2015-10-03T14:19:24Z</time>
      </trkpt>
      <trkpt lat="44.42098" lon="0.93256">
        <ele>116.46</ele>
        <time>2015-10-03T14:19:50Z</time>
      </trkpt>
      <trkpt lat="44.42097" lon="0.93257">
        <ele>116.46</ele>
        <time>2015-10-03T14:20:19Z</time>
      </trkpt>
      <trkpt lat="44.42097" lon="0.93258">
        <ele>116.94</ele>
        <time>2015-10-03T14:20:48Z</time>
      </trkpt>
      <trkpt lat="44.42105" lon="0.93263">
        <ele>116.94</ele>
        <time>2015-10-03T14:21:05Z</time>
      </trkpt>
      <trkpt lat="44.42133" lon="0.93279">
        <ele>117.9</ele>
        <time>2015-10-03T14:21:20Z</time>
      </trkpt>
      <trkpt lat="44.42144" lon="0.93286">
        <ele>118.38</ele>
        <time>2015-10-03T14:21:26Z</time>
      </trkpt>
      <trkpt lat="44.42167" lon="0.93302">
        <ele>121.74</ele>
        <time>2015-10-03T14:21:41Z</time>
      </trkpt>
      <trkpt lat="44.42193" lon="0.9332">
        <ele>126.07</ele>
        <time>2015-10-03T14:21:58Z</time>
      </trkpt>
      <trkpt lat="44.4221" lon="0.93332">
        <ele>127.51</ele>
        <time>2015-10-03T14:22:08Z</time>
      </trkpt>
      <trkpt lat="44.42212" lon="0.9333">
        <ele>126.07</ele>
        <time>2015-10-03T14:22:18Z</time>
      </trkpt>
      <trkpt lat="44.42212" lon="0.93329">
        <ele>126.07</ele>
        <time>2015-10-03T14:22:25Z</time>
      </trkpt>
      <trkpt lat="44.42216" lon="0.93338">
        <ele>127.51</ele>
        <time>2015-10-03T14:22:34Z</time>
      </trkpt>
      <trkpt lat="44.42217" lon="0.93339">
        <ele>127.99</ele>
        <time>2015-10-03T14:22:35Z</time>
      </trkpt>
      <trkpt lat="44.42217" lon="0.93347">
        <ele>127.51</ele>
        <time>2015-10-03T14:22:41Z</time>
      </trkpt>
      <trkpt lat="44.42217" lon="0.93351">
        <ele>127.99</ele>
        <time>2015-10-03T14:22:44Z</time>
      </trkpt>
      <trkpt lat="44.4222" lon="0.9336">
        <ele>127.99</ele>
        <time>2015-10-03T14:23:00Z</time>
      </trkpt>
      <trkpt lat="44.42221" lon="0.93362">
        <ele>127.03</ele>
        <time>2015-10-03T14:23:25Z</time>
      </trkpt>
      <trkpt lat="44.42222" lon="0.93361">
        <ele>127.03</ele>
        <time>2015-10-03T14:23:32Z</time>
      </trkpt>
      <trkpt lat="44.4225" lon="0.93361">
        <ele>125.11</ele>
        <time>2015-10-03T14:23:46Z</time>
      </trkpt>
      <trkpt lat="44.42261" lon="0.93361">
        <ele>123.67</ele>
        <time>2015-10-03T14:23:49Z</time>
      </trkpt>
      <trkpt lat="44.42274" lon="0.93359">
        <ele>122.71</ele>
        <time>2015-10-03T14:23:52Z</time>
      </trkpt>
      <trkpt lat="44.42322" lon="0.93351">
        <ele>122.71</ele>
        <time>2015-10-03T14:24:05Z</time>
      </trkpt>
      <trkpt lat="44.42358" lon="0.93367">
        <ele>123.67</ele>
        <time>2015-10-03T14:24:18Z</time>
      </trkpt>
      <trkpt lat="44.42383" lon="0.93396">
        <ele>124.63</ele>
        <time>2015-10-03T14:24:30Z</time>
      </trkpt>
      <trkpt lat="44.4241" lon="0.93423">
        <ele>125.59</ele>
        <time>2015-10-03T14:24:43Z</time>
      </trkpt>
      <trkpt lat="44.42439" lon="0.93451">
        <ele>126.55</ele>
        <time>2015-10-03T14:24:58Z</time>
      </trkpt>
      <trkpt lat="44.42463" lon="0.93473">
        <ele>129.43</ele>
        <time>2015-10-03T14:25:11Z</time>
      </trkpt>
      <trkpt lat="44.4249" lon="0.93489">
        <ele>132.8</ele>
        <time>2015-10-03T14:25:23Z</time>
      </trkpt>
      <trkpt lat="44.42519" lon="0.93499">
        <ele>134.72</ele>
        <time>2015-10-03T14:25:36Z</time>
      </trkpt>
      <trkpt lat="44.42554" lon="0.93509">
        <ele>137.13</ele>
        <time>2015-10-03T14:25:51Z</time>
      </trkpt>
      <trkpt lat="44.42584" lon="0.93531">
        <ele>136.64</ele>
        <time>2015-10-03T14:26:02Z</time>
      </trkpt>
      <trkpt lat="44.42587" lon="0.93532">
        <ele>136.64</ele>
        <time>2015-10-03T14:26:04Z</time>
      </trkpt>
      <trkpt lat="44.4259" lon="0.93533">
        <ele>136.64</ele>
        <time>2015-10-03T14:26:13Z</time>
      </trkpt>
      <trkpt lat="44.4259" lon="0.93534">
        <ele>136.16</ele>
        <time>2015-10-03T14:26:35Z</time>
      </trkpt>
      <trkpt lat="44.4259" lon="0.93534">
        <ele>135.68</ele>
        <time>2015-10-03T14:26:51Z</time>
      </trkpt>
      <trkpt lat="44.4259" lon="0.93535">
        <ele>135.68</ele>
        <time>2015-10-03T14:27:13Z</time>
      </trkpt>
      <trkpt lat="44.42591" lon="0.93537">
        <ele>135.2</ele>
        <time>2015-10-03T14:27:28Z</time>
      </trkpt>
      <trkpt lat="44.4259" lon="0.93536">
        <ele>135.2</ele>
        <time>2015-10-03T14:27:46Z</time>
      </trkpt>
      <trkpt lat="44.4259" lon="0.93536">
        <ele>134.72</ele>
        <time>2015-10-03T14:28:07Z</time>
      </trkpt>
      <trkpt lat="44.42589" lon="0.93537">
        <ele>133.76</ele>
        <time>2015-10-03T14:28:40Z</time>
      </trkpt>
      <trkpt lat="44.42589" lon="0.93536">
        <ele>134.24</ele>
        <time>2015-10-03T14:29:03Z</time>
      </trkpt>
      <trkpt lat="44.42589" lon="0.93537">
        <ele>134.24</ele>
        <time>2015-10-03T14:29:18Z</time>
      </trkpt>
      <trkpt lat="44.42589" lon="0.93537">
        <ele>132.8</ele>
        <time>2015-10-03T14:29:45Z</time>
      </trkpt>
      <trkpt lat="44.42589" lon="0.93536">
        <ele>131.84</ele>
        <time>2015-10-03T14:30:06Z</time>
      </trkpt>
      <trkpt lat="44.4259" lon="0.93537">
        <ele>131.36</ele>
        <time>2015-10-03T14:30:27Z</time>
      </trkpt>
      <trkpt lat="44.4259" lon="0.93538">
        <ele>130.88</ele>
        <time>2015-10-03T14:30:49Z</time>
      </trkpt>
      <trkpt lat="44.42589" lon="0.93534">
        <ele>131.36</ele>
        <time>2015-10-03T14:31:01Z</time>
      </trkpt>
      <trkpt lat="44.42588" lon="0.93534">
        <ele>131.36</ele>
        <time>2015-10-03T14:31:14Z</time>
      </trkpt>
      <trkpt lat="44.4259" lon="0.93534">
        <ele>131.84</ele>
        <time>2015-10-03T14:31:15Z</time>
      </trkpt>
      <trkpt lat="44.42591" lon="0.93535">
        <ele>131.84</ele>
        <time>2015-10-03T14:31:16Z</time>
      </trkpt>
      <trkpt lat="44.42593" lon="0.93537">
        <ele>131.84</ele>
        <time>2015-10-03T14:31:17Z</time>
      </trkpt>
      <trkpt lat="44.42596" lon="0.93538">
        <ele>131.84</ele>
        <time>2015-10-03T14:31:18Z</time>
      </trkpt>
      <trkpt lat="44.42598" lon="0.9354">
        <ele>132.32</ele>
        <time>2015-10-03T14:31:19Z</time>
      </trkpt>
      <trkpt lat="44.42655" lon="0.93582">
        <ele>131.36</ele>
        <time>2015-10-03T14:31:34Z</time>
      </trkpt>
      <trkpt lat="44.42693" lon="0.93616">
        <ele>129.92</ele>
        <time>2015-10-03T14:31:41Z</time>
      </trkpt>
      <trkpt lat="44.42712" lon="0.93629">
        <ele>129.92</ele>
        <time>2015-10-03T14:31:45Z</time>
      </trkpt>
      <trkpt lat="44.42717" lon="0.93632">
        <ele>129.43</ele>
        <time>2015-10-03T14:31:46Z</time>
      </trkpt>
      <trkpt lat="44.42732" lon="0.93641">
        <ele>129.43</ele>
        <time>2015-10-03T14:31:49Z</time>
      </trkpt>
      <trkpt lat="44.42735" lon="0.93644">
        <ele>129.43</ele>
        <time>2015-10-03T14:31:50Z</time>
      </trkpt>
      <trkpt lat="44.42738" lon="0.93646">
        <ele>129.43</ele>
        <time>2015-10-03T14:31:51Z</time>
      </trkpt>
      <trkpt lat="44.42737" lon="0.93646">
        <ele>129.43</ele>
        <time>2015-10-03T14:32:02Z</time>
      </trkpt>
      <trkpt lat="44.42738" lon="0.93646">
        <ele>129.92</ele>
        <time>2015-10-03T14:32:28Z</time>
      </trkpt>
      <trkpt lat="44.42742" lon="0.93646">
        <ele>130.4</ele>
        <time>2015-10-03T14:32:39Z</time>
      </trkpt>
      <trkpt lat="44.42743" lon="0.93646">
        <ele>129.43</ele>
        <time>2015-10-03T14:32:58Z</time>
      </trkpt>
      <trkpt lat="44.42758" lon="0.93659">
        <ele>128.47</ele>
        <time>2015-10-03T14:33:11Z</time>
      </trkpt>
      <trkpt lat="44.42785" lon="0.93685">
        <ele>126.55</ele>
        <time>2015-10-03T14:33:18Z</time>
      </trkpt>
      <trkpt lat="44.42855" lon="0.93754">
        <ele>124.63</ele>
        <time>2015-10-03T14:33:33Z</time>
      </trkpt>
      <trkpt lat="44.42929" lon="0.93813">
        <ele>124.63</ele>
        <time>2015-10-03T14:33:51Z</time>
      </trkpt>
      <trkpt lat="44.42953" lon="0.93835">
        <ele>123.67</ele>
        <time>2015-10-03T14:33:57Z</time>
      </trkpt>
      <trkpt lat="44.42957" lon="0.9384">
        <ele>123.67</ele>
        <time>2015-10-03T14:33:58Z</time>
      </trkpt>
      <trkpt lat="44.42987" lon="0.93879">
        <ele>123.19</ele>
        <time>2015-10-03T14:34:06Z</time>
      </trkpt>
      <trkpt lat="44.4299" lon="0.93884">
        <ele>123.19</ele>
        <time>2015-10-03T14:34:07Z</time>
      </trkpt>
      <trkpt lat="44.42993" lon="0.93888">
        <ele>123.19</ele>
        <time>2015-10-03T14:34:08Z</time>
      </trkpt>
      <trkpt lat="44.43042" lon="0.93945">
        <ele>123.67</ele>
        <time>2015-10-03T14:34:22Z</time>
      </trkpt>
      <trkpt lat="44.43045" lon="0.93949">
        <ele>123.67</ele>
        <time>2015-10-03T14:34:23Z</time>
      </trkpt>
      <trkpt lat="44.43049" lon="0.93954">
        <ele>123.67</ele>
        <time>2015-10-03T14:34:24Z</time>
      </trkpt>
      <trkpt lat="44.43052" lon="0.93958">
        <ele>123.67</ele>
        <time>2015-10-03T14:34:25Z</time>
      </trkpt>
      <trkpt lat="44.43064" lon="0.93977">
        <ele>123.67</ele>
        <time>2015-10-03T14:34:29Z</time>
      </trkpt>
      <trkpt lat="44.43068" lon="0.93982">
        <ele>123.19</ele>
        <time>2015-10-03T14:34:30Z</time>
      </trkpt>
      <trkpt lat="44.43071" lon="0.93987">
        <ele>123.19</ele>
        <time>2015-10-03T14:34:31Z</time>
      </trkpt>
      <trkpt lat="44.43077" lon="0.93998">
        <ele>122.71</ele>
        <time>2015-10-03T14:34:33Z</time>
      </trkpt>
      <trkpt lat="44.4308" lon="0.94005">
        <ele>122.22</ele>
        <time>2015-10-03T14:34:34Z</time>
      </trkpt>
      <trkpt lat="44.43083" lon="0.94022">
        <ele>121.74</ele>
        <time>2015-10-03T14:34:36Z</time>
      </trkpt>
      <trkpt lat="44.43084" lon="0.94032">
        <ele>121.26</ele>
        <time>2015-10-03T14:34:37Z</time>
      </trkpt>
      <trkpt lat="44.43085" lon="0.94042">
        <ele>120.78</ele>
        <time>2015-10-03T14:34:38Z</time>
      </trkpt>
      <trkpt lat="44.43085" lon="0.94076">
        <ele>118.38</ele>
        <time>2015-10-03T14:34:41Z</time>
      </trkpt>
      <trkpt lat="44.43088" lon="0.94101">
        <ele>116.46</ele>
        <time>2015-10-03T14:34:43Z</time>
      </trkpt>
      <trkpt lat="44.4309" lon="0.94115">
        <ele>115.01</ele>
        <time>2015-10-03T14:34:44Z</time>
      </trkpt>
      <trkpt lat="44.43095" lon="0.94128">
        <ele>114.05</ele>
        <time>2015-10-03T14:34:45Z</time>
      </trkpt>
      <trkpt lat="44.43101" lon="0.9414">
        <ele>112.61</ele>
        <time>2015-10-03T14:34:46Z</time>
      </trkpt>
      <trkpt lat="44.43108" lon="0.94152">
        <ele>111.17</ele>
        <time>2015-10-03T14:34:47Z</time>
      </trkpt>
      <trkpt lat="44.43116" lon="0.94163">
        <ele>110.21</ele>
        <time>2015-10-03T14:34:48Z</time>
      </trkpt>
      <trkpt lat="44.43124" lon="0.94174">
        <ele>109.25</ele>
        <time>2015-10-03T14:34:49Z</time>
      </trkpt>
      <trkpt lat="44.43133" lon="0.94183">
        <ele>108.29</ele>
        <time>2015-10-03T14:34:50Z</time>
      </trkpt>
      <trkpt lat="44.43142" lon="0.94191">
        <ele>107.81</ele>
        <time>2015-10-03T14:34:51Z</time>
      </trkpt>
      <trkpt lat="44.4315" lon="0.94194">
        <ele>107.32</ele>
        <time>2015-10-03T14:34:52Z</time>
      </trkpt>
      <trkpt lat="44.43157" lon="0.94194">
        <ele>106.84</ele>
        <time>2015-10-03T14:34:53Z</time>
      </trkpt>
      <trkpt lat="44.43164" lon="0.9419">
        <ele>106.84</ele>
        <time>2015-10-03T14:34:54Z</time>
      </trkpt>
      <trkpt lat="44.43169" lon="0.94184">
        <ele>106.84</ele>
        <time>2015-10-03T14:34:55Z</time>
      </trkpt>
      <trkpt lat="44.43173" lon="0.94177">
        <ele>107.32</ele>
        <time>2015-10-03T14:34:56Z</time>
      </trkpt>
      <trkpt lat="44.43191" lon="0.9415">
        <ele>108.29</ele>
        <time>2015-10-03T14:35:01Z</time>
      </trkpt>
      <trkpt lat="44.43227" lon="0.94121">
        <ele>111.17</ele>
        <time>2015-10-03T14:35:13Z</time>
      </trkpt>
      <trkpt lat="44.43264" lon="0.94105">
        <ele>115.5</ele>
        <time>2015-10-03T14:35:27Z</time>
      </trkpt>
      <trkpt lat="44.43296" lon="0.94093">
        <ele>116.94</ele>
        <time>2015-10-03T14:35:39Z</time>
      </trkpt>
      <trkpt lat="44.43325" lon="0.9408">
        <ele>118.86</ele>
        <time>2015-10-03T14:35:53Z</time>
      </trkpt>
      <trkpt lat="44.43352" lon="0.94064">
        <ele>120.3</ele>
        <time>2015-10-03T14:36:08Z</time>
      </trkpt>
      <trkpt lat="44.43355" lon="0.94059">
        <ele>120.3</ele>
        <time>2015-10-03T14:36:11Z</time>
      </trkpt>
      <trkpt lat="44.43357" lon="0.94058">
        <ele>120.3</ele>
        <time>2015-10-03T14:36:21Z</time>
      </trkpt>
      <trkpt lat="44.43358" lon="0.94059">
        <ele>119.82</ele>
        <time>2015-10-03T14:36:36Z</time>
      </trkpt>
      <trkpt lat="44.43359" lon="0.94059">
        <ele>120.3</ele>
        <time>2015-10-03T14:36:56Z</time>
      </trkpt>
      <trkpt lat="44.4336" lon="0.94058">
        <ele>120.3</ele>
        <time>2015-10-03T14:37:13Z</time>
      </trkpt>
      <trkpt lat="44.43359" lon="0.94059">
        <ele>120.3</ele>
        <time>2015-10-03T14:37:33Z</time>
      </trkpt>
      <trkpt lat="44.4336" lon="0.94061">
        <ele>121.26</ele>
        <time>2015-10-03T14:37:44Z</time>
      </trkpt>
      <trkpt lat="44.43363" lon="0.94062">
        <ele>121.26</ele>
        <time>2015-10-03T14:37:47Z</time>
      </trkpt>
      <trkpt lat="44.43365" lon="0.94061">
        <ele>121.74</ele>
        <time>2015-10-03T14:37:48Z</time>
      </trkpt>
      <trkpt lat="44.43367" lon="0.94061">
        <ele>121.74</ele>
        <time>2015-10-03T14:37:49Z</time>
      </trkpt>
      <trkpt lat="44.43368" lon="0.9406">
        <ele>121.26</ele>
        <time>2015-10-03T14:37:50Z</time>
      </trkpt>
      <trkpt lat="44.4337" lon="0.9406">
        <ele>121.26</ele>
        <time>2015-10-03T14:37:51Z</time>
      </trkpt>
      <trkpt lat="44.43371" lon="0.94058">
        <ele>121.26</ele>
        <time>2015-10-03T14:37:52Z</time>
      </trkpt>
      <trkpt lat="44.43371" lon="0.94057">
        <ele>120.78</ele>
        <time>2015-10-03T14:37:53Z</time>
      </trkpt>
      <trkpt lat="44.43374" lon="0.94058">
        <ele>121.26</ele>
        <time>2015-10-03T14:38:02Z</time>
      </trkpt>
      <trkpt lat="44.43374" lon="0.9406">
        <ele>121.26</ele>
        <time>2015-10-03T14:38:03Z</time>
      </trkpt>
      <trkpt lat="44.43374" lon="0.94062">
        <ele>121.26</ele>
        <time>2015-10-03T14:38:04Z</time>
      </trkpt>
      <trkpt lat="44.43374" lon="0.94064">
        <ele>120.78</ele>
        <time>2015-10-03T14:38:05Z</time>
      </trkpt>
      <trkpt lat="44.43375" lon="0.94066">
        <ele>120.78</ele>
        <time>2015-10-03T14:38:06Z</time>
      </trkpt>
      <trkpt lat="44.43377" lon="0.94068">
        <ele>120.78</ele>
        <time>2015-10-03T14:38:07Z</time>
      </trkpt>
      <trkpt lat="44.43379" lon="0.9407">
        <ele>120.3</ele>
        <time>2015-10-03T14:38:08Z</time>
      </trkpt>
      <trkpt lat="44.4338" lon="0.94072">
        <ele>120.3</ele>
        <time>2015-10-03T14:38:09Z</time>
      </trkpt>
      <trkpt lat="44.43382" lon="0.94074">
        <ele>120.3</ele>
        <time>2015-10-03T14:38:10Z</time>
      </trkpt>
      <trkpt lat="44.43384" lon="0.94077">
        <ele>120.3</ele>
        <time>2015-10-03T14:38:11Z</time>
      </trkpt>
      <trkpt lat="44.43386" lon="0.94079">
        <ele>119.82</ele>
        <time>2015-10-03T14:38:12Z</time>
      </trkpt>
      <trkpt lat="44.43388" lon="0.94081">
        <ele>119.82</ele>
        <time>2015-10-03T14:38:13Z</time>
      </trkpt>
      <trkpt lat="44.4342" lon="0.94124">
        <ele>117.9</ele>
        <time>2015-10-03T14:38:26Z</time>
      </trkpt>
      <trkpt lat="44.4346" lon="0.94176">
        <ele>117.42</ele>
        <time>2015-10-03T14:38:41Z</time>
      </trkpt>
      <trkpt lat="44.43485" lon="0.94235">
        <ele>119.82</ele>
        <time>2015-10-03T14:38:56Z</time>
      </trkpt>
      <trkpt lat="44.43517" lon="0.94289">
        <ele>119.82</ele>
        <time>2015-10-03T14:39:11Z</time>
      </trkpt>
      <trkpt lat="44.43559" lon="0.9433">
        <ele>120.78</ele>
        <time>2015-10-03T14:39:26Z</time>
      </trkpt>
      <trkpt lat="44.43596" lon="0.9436">
        <ele>123.67</ele>
        <time>2015-10-03T14:39:39Z</time>
      </trkpt>
      <trkpt lat="44.43641" lon="0.94393">
        <ele>127.99</ele>
        <time>2015-10-03T14:39:55Z</time>
      </trkpt>
      <trkpt lat="44.4367" lon="0.94416">
        <ele>130.4</ele>
        <time>2015-10-03T14:40:07Z</time>
      </trkpt>
      <trkpt lat="44.43703" lon="0.94448">
        <ele>130.4</ele>
        <time>2015-10-03T14:40:21Z</time>
      </trkpt>
      <trkpt lat="44.43733" lon="0.94495">
        <ele>126.55</ele>
        <time>2015-10-03T14:40:33Z</time>
      </trkpt>
      <trkpt lat="44.43736" lon="0.94499">
        <ele>126.07</ele>
        <time>2015-10-03T14:40:35Z</time>
      </trkpt>
      <trkpt lat="44.43737" lon="0.945">
        <ele>126.07</ele>
        <time>2015-10-03T14:40:36Z</time>
      </trkpt>
      <trkpt lat="44.43737" lon="0.94501">
        <ele>125.59</ele>
        <time>2015-10-03T14:40:48Z</time>
      </trkpt>
      <trkpt lat="44.43738" lon="0.94503">
        <ele>124.63</ele>
        <time>2015-10-03T14:41:08Z</time>
      </trkpt>
      <trkpt lat="44.43749" lon="0.94513">
        <ele>123.67</ele>
        <time>2015-10-03T14:41:22Z</time>
      </trkpt>
      <trkpt lat="44.43779" lon="0.94544">
        <ele>122.22</ele>
        <time>2015-10-03T14:41:30Z</time>
      </trkpt>
      <trkpt lat="44.43783" lon="0.94548">
        <ele>122.22</ele>
        <time>2015-10-03T14:41:31Z</time>
      </trkpt>
      <trkpt lat="44.43787" lon="0.94551">
        <ele>122.22</ele>
        <time>2015-10-03T14:41:32Z</time>
      </trkpt>
      <trkpt lat="44.4379" lon="0.94555">
        <ele>122.22</ele>
        <time>2015-10-03T14:41:33Z</time>
      </trkpt>
      <trkpt lat="44.43791" lon="0.94558">
        <ele>121.74</ele>
        <time>2015-10-03T14:41:34Z</time>
      </trkpt>
      <trkpt lat="44.4379" lon="0.94561">
        <ele>121.74</ele>
        <time>2015-10-03T14:41:35Z</time>
      </trkpt>
      <trkpt lat="44.43788" lon="0.94563">
        <ele>121.74</ele>
        <time>2015-10-03T14:41:36Z</time>
      </trkpt>
      <trkpt lat="44.43785" lon="0.94565">
        <ele>121.74</ele>
        <time>2015-10-03T14:41:37Z</time>
      </trkpt>
      <trkpt lat="44.43737" lon="0.94598">
        <ele>123.67</ele>
        <time>2015-10-03T14:41:53Z</time>
      </trkpt>
      <trkpt lat="44.4374" lon="0.94618">
        <ele>125.11</ele>
        <time>2015-10-03T14:41:59Z</time>
      </trkpt>
      <trkpt lat="44.4376" lon="0.94676">
        <ele>126.55</ele>
        <time>2015-10-03T14:42:14Z</time>
      </trkpt>
      <trkpt lat="44.43765" lon="0.94695">
        <ele>126.07</ele>
        <time>2015-10-03T14:42:18Z</time>
      </trkpt>
      <trkpt lat="44.43781" lon="0.94742">
        <ele>125.11</ele>
        <time>2015-10-03T14:42:28Z</time>
      </trkpt>
      <trkpt lat="44.43782" lon="0.94746">
        <ele>125.11</ele>
        <time>2015-10-03T14:42:29Z</time>
      </trkpt>
      <trkpt lat="44.43784" lon="0.94786">
        <ele>122.71</ele>
        <time>2015-10-03T14:42:39Z</time>
      </trkpt>
      <trkpt lat="44.43788" lon="0.94837">
        <ele>121.26</ele>
        <time>2015-10-03T14:42:50Z</time>
      </trkpt>
      <trkpt lat="44.43789" lon="0.94853">
        <ele>120.3</ele>
        <time>2015-10-03T14:42:53Z</time>
      </trkpt>
      <trkpt lat="44.43791" lon="0.94866">
        <ele>119.82</ele>
        <time>2015-10-03T14:42:55Z</time>
      </trkpt>
      <trkpt lat="44.43795" lon="0.94888">
        <ele>118.38</ele>
        <time>2015-10-03T14:42:58Z</time>
      </trkpt>
      <trkpt lat="44.43802" lon="0.94909">
        <ele>115.98</ele>
        <time>2015-10-03T14:43:02Z</time>
      </trkpt>
      <trkpt lat="44.43819" lon="0.9494">
        <ele>113.57</ele>
        <time>2015-10-03T14:43:09Z</time>
      </trkpt>
      <trkpt lat="44.43825" lon="0.94948">
        <ele>113.09</ele>
        <time>2015-10-03T14:43:13Z</time>
      </trkpt>
      <trkpt lat="44.43843" lon="0.94978">
        <ele>110.21</ele>
        <time>2015-10-03T14:43:21Z</time>
      </trkpt>
      <trkpt lat="44.43882" lon="0.95021">
        <ele>104.92</ele>
        <time>2015-10-03T14:43:33Z</time>
      </trkpt>
      <trkpt lat="44.43885" lon="0.95059">
        <ele>102.52</ele>
        <time>2015-10-03T14:43:44Z</time>
      </trkpt>
      <trkpt lat="44.43866" lon="0.95092">
        <ele>103</ele>
        <time>2015-10-03T14:43:57Z</time>
      </trkpt>
      <trkpt lat="44.43863" lon="0.95095">
        <ele>103</ele>
        <time>2015-10-03T14:43:59Z</time>
      </trkpt>
      <trkpt lat="44.4386" lon="0.95106">
        <ele>103.96</ele>
        <time>2015-10-03T14:44:09Z</time>
      </trkpt>
      <trkpt lat="44.43859" lon="0.95126">
        <ele>104.44</ele>
        <time>2015-10-03T14:44:23Z</time>
      </trkpt>
      <trkpt lat="44.43859" lon="0.9513">
        <ele>104.44</ele>
        <time>2015-10-03T14:44:46Z</time>
      </trkpt>
      <trkpt lat="44.4386" lon="0.95132">
        <ele>104.92</ele>
        <time>2015-10-03T14:45:11Z</time>
      </trkpt>
      <trkpt lat="44.4386" lon="0.95131">
        <ele>106.36</ele>
        <time>2015-10-03T14:45:36Z</time>
      </trkpt>
      <trkpt lat="44.43861" lon="0.95135">
        <ele>106.36</ele>
        <time>2015-10-03T14:45:57Z</time>
      </trkpt>
      <trkpt lat="44.43862" lon="0.95143">
        <ele>105.88</ele>
        <time>2015-10-03T14:46:07Z</time>
      </trkpt>
      <trkpt lat="44.43862" lon="0.95159">
        <ele>107.32</ele>
        <time>2015-10-03T14:46:19Z</time>
      </trkpt>
      <trkpt lat="44.43862" lon="0.95161">
        <ele>107.32</ele>
        <time>2015-10-03T14:46:21Z</time>
      </trkpt>
      <trkpt lat="44.43864" lon="0.95188">
        <ele>108.77</ele>
        <time>2015-10-03T14:46:31Z</time>
      </trkpt>
      <trkpt lat="44.43862" lon="0.95229">
        <ele>106.36</ele>
        <time>2015-10-03T14:46:42Z</time>
      </trkpt>
      <trkpt lat="44.43862" lon="0.95238">
        <ele>105.88</ele>
        <time>2015-10-03T14:46:51Z</time>
      </trkpt>
      <trkpt lat="44.43862" lon="0.9524">
        <ele>106.36</ele>
        <time>2015-10-03T14:47:14Z</time>
      </trkpt>
      <trkpt lat="44.43862" lon="0.9524">
        <ele>106.84</ele>
        <time>2015-10-03T14:47:38Z</time>
      </trkpt>
      <trkpt lat="44.43861" lon="0.95239">
        <ele>105.88</ele>
        <time>2015-10-03T14:47:59Z</time>
      </trkpt>
      <trkpt lat="44.43861" lon="0.95241">
        <ele>106.36</ele>
        <time>2015-10-03T14:48:06Z</time>
      </trkpt>
      <trkpt lat="44.43864" lon="0.95255">
        <ele>107.32</ele>
        <time>2015-10-03T14:48:12Z</time>
      </trkpt>
      <trkpt lat="44.43864" lon="0.95268">
        <ele>108.29</ele>
        <time>2015-10-03T14:48:16Z</time>
      </trkpt>
      <trkpt lat="44.43851" lon="0.9531">
        <ele>110.21</ele>
        <time>2015-10-03T14:48:28Z</time>
      </trkpt>
      <trkpt lat="44.43839" lon="0.95342">
        <ele>111.65</ele>
        <time>2015-10-03T14:48:40Z</time>
      </trkpt>
      <trkpt lat="44.43838" lon="0.95373">
        <ele>113.09</ele>
        <time>2015-10-03T14:48:53Z</time>
      </trkpt>
      <trkpt lat="44.43839" lon="0.95379">
        <ele>113.57</ele>
        <time>2015-10-03T14:48:56Z</time>
      </trkpt>
      <trkpt lat="44.43841" lon="0.95403">
        <ele>115.01</ele>
        <time>2015-10-03T14:49:08Z</time>
      </trkpt>
      <trkpt lat="44.43845" lon="0.9543">
        <ele>116.46</ele>
        <time>2015-10-03T14:49:23Z</time>
      </trkpt>
      <trkpt lat="44.43847" lon="0.95449">
        <ele>117.42</ele>
        <time>2015-10-03T14:49:36Z</time>
      </trkpt>
      <trkpt lat="44.43842" lon="0.95461">
        <ele>116.46</ele>
        <time>2015-10-03T14:49:50Z</time>
      </trkpt>
      <trkpt lat="44.43842" lon="0.95463">
        <ele>115.01</ele>
        <time>2015-10-03T14:50:11Z</time>
      </trkpt>
      <trkpt lat="44.43841" lon="0.95466">
        <ele>115.01</ele>
        <time>2015-10-03T14:50:23Z</time>
      </trkpt>
      <trkpt lat="44.43826" lon="0.95508">
        <ele>115.98</ele>
        <time>2015-10-03T14:50:39Z</time>
      </trkpt>
      <trkpt lat="44.43811" lon="0.95551">
        <ele>117.42</ele>
        <time>2015-10-03T14:50:56Z</time>
      </trkpt>
      <trkpt lat="44.43797" lon="0.95586">
        <ele>118.38</ele>
        <time>2015-10-03T14:51:12Z</time>
      </trkpt>
      <trkpt lat="44.43781" lon="0.95605">
        <ele>116.94</ele>
        <time>2015-10-03T14:51:26Z</time>
      </trkpt>
      <trkpt lat="44.43766" lon="0.95633">
        <ele>117.9</ele>
        <time>2015-10-03T14:51:40Z</time>
      </trkpt>
      <trkpt lat="44.43753" lon="0.95658">
        <ele>118.38</ele>
        <time>2015-10-03T14:51:52Z</time>
      </trkpt>
      <trkpt lat="44.43738" lon="0.95687">
        <ele>119.34</ele>
        <time>2015-10-03T14:52:05Z</time>
      </trkpt>
      <trkpt lat="44.4373" lon="0.95708">
        <ele>120.3</ele>
        <time>2015-10-03T14:52:19Z</time>
      </trkpt>
      <trkpt lat="44.4373" lon="0.9571">
        <ele>120.3</ele>
        <time>2015-10-03T14:52:38Z</time>
      </trkpt>
      <trkpt lat="44.4373" lon="0.95711">
        <ele>118.86</ele>
        <time>2015-10-03T14:53:08Z</time>
      </trkpt>
      <trkpt lat="44.4373" lon="0.95712">
        <ele>117.9</ele>
        <time>2015-10-03T14:53:13Z</time>
      </trkpt>
      <trkpt lat="44.43755" lon="0.95716">
        <ele>117.9</ele>
        <time>2015-10-03T14:53:24Z</time>
      </trkpt>
      <trkpt lat="44.43804" lon="0.95717">
        <ele>116.46</ele>
        <time>2015-10-03T14:53:37Z</time>
      </trkpt>
      <trkpt lat="44.43871" lon="0.95709">
        <ele>111.65</ele>
        <time>2015-10-03T14:53:50Z</time>
      </trkpt>
      <trkpt lat="44.43912" lon="0.95705">
        <ele>111.65</ele>
        <time>2015-10-03T14:54:00Z</time>
      </trkpt>
      <trkpt lat="44.4394" lon="0.95682">
        <ele>113.09</ele>
        <time>2015-10-03T14:54:12Z</time>
      </trkpt>
      <trkpt lat="44.43973" lon="0.95675">
        <ele>117.42</ele>
        <time>2015-10-03T14:54:24Z</time>
      </trkpt>
      <trkpt lat="44.44004" lon="0.95659">
        <ele>118.86</ele>
        <time>2015-10-03T14:54:35Z</time>
      </trkpt>
      <trkpt lat="44.44017" lon="0.9565">
        <ele>119.82</ele>
        <time>2015-10-03T14:54:41Z</time>
      </trkpt>
      <trkpt lat="44.4402" lon="0.95641">
        <ele>120.78</ele>
        <time>2015-10-03T14:54:45Z</time>
      </trkpt>
      <trkpt lat="44.44022" lon="0.95637">
        <ele>122.22</ele>
        <time>2015-10-03T14:55:00Z</time>
      </trkpt>
      <trkpt lat="44.44021" lon="0.95635">
        <ele>120.78</ele>
        <time>2015-10-03T14:55:28Z</time>
      </trkpt>
      <trkpt lat="44.44022" lon="0.95634">
        <ele>120.78</ele>
        <time>2015-10-03T14:55:47Z</time>
      </trkpt>
      <trkpt lat="44.44022" lon="0.95634">
        <ele>120.78</ele>
        <time>2015-10-03T14:56:08Z</time>
      </trkpt>
      <trkpt lat="44.44022" lon="0.95633">
        <ele>121.26</ele>
        <time>2015-10-03T14:56:32Z</time>
      </trkpt>
      <trkpt lat="44.44022" lon="0.95633">
        <ele>121.26</ele>
        <time>2015-10-03T14:56:49Z</time>
      </trkpt>
      <trkpt lat="44.44025" lon="0.9563">
        <ele>120.3</ele>
        <time>2015-10-03T14:57:07Z</time>
      </trkpt>
      <trkpt lat="44.44047" lon="0.95606">
        <ele>121.26</ele>
        <time>2015-10-03T14:57:19Z</time>
      </trkpt>
      <trkpt lat="44.44081" lon="0.95572">
        <ele>121.74</ele>
        <time>2015-10-03T14:57:35Z</time>
      </trkpt>
      <trkpt lat="44.44126" lon="0.95531">
        <ele>121.26</ele>
        <time>2015-10-03T14:57:53Z</time>
      </trkpt>
      <trkpt lat="44.44159" lon="0.95503">
        <ele>119.82</ele>
        <time>2015-10-03T14:58:03Z</time>
      </trkpt>
      <trkpt lat="44.44208" lon="0.9546">
        <ele>118.86</ele>
        <time>2015-10-03T14:58:19Z</time>
      </trkpt>
      <trkpt lat="44.44236" lon="0.95437">
        <ele>121.74</ele>
        <time>2015-10-03T14:58:30Z</time>
      </trkpt>
      <trkpt lat="44.44276" lon="0.954">
        <ele>122.71</ele>
        <time>2015-10-03T14:58:45Z</time>
      </trkpt>
      <trkpt lat="44.44303" lon="0.95381">
        <ele>123.67</ele>
        <time>2015-10-03T14:58:57Z</time>
      </trkpt>
      <trkpt lat="44.44306" lon="0.95381">
        <ele>122.22</ele>
        <time>2015-10-03T14:59:11Z</time>
      </trkpt>
      <trkpt lat="44.44306" lon="0.9538">
        <ele>122.22</ele>
        <time>2015-10-03T14:59:28Z</time>
      </trkpt>
      <trkpt lat="44.44306" lon="0.9538">
        <ele>121.26</ele>
        <time>2015-10-03T14:59:49Z</time>
      </trkpt>
      <trkpt lat="44.44306" lon="0.9538">
        <ele>121.74</ele>
        <time>2015-10-03T15:00:11Z</time>
      </trkpt>
      <trkpt lat="44.44306" lon="0.9538">
        <ele>121.74</ele>
        <time>2015-10-03T15:00:36Z</time>
      </trkpt>
      <trkpt lat="44.4434" lon="0.95343">
        <ele>120.3</ele>
        <time>2015-10-03T15:00:48Z</time>
      </trkpt>
      <trkpt lat="44.44372" lon="0.95292">
        <ele>119.82</ele>
        <time>2015-10-03T15:01:01Z</time>
      </trkpt>
      <trkpt lat="44.44411" lon="0.95243">
        <ele>119.82</ele>
        <time>2015-10-03T15:01:15Z</time>
      </trkpt>
      <trkpt lat="44.44464" lon="0.95195">
        <ele>119.82</ele>
        <time>2015-10-03T15:01:29Z</time>
      </trkpt>
      <trkpt lat="44.44534" lon="0.95134">
        <ele>116.94</ele>
        <time>2015-10-03T15:01:41Z</time>
      </trkpt>
      <trkpt lat="44.4459" lon="0.95092">
        <ele>116.46</ele>
        <time>2015-10-03T15:01:54Z</time>
      </trkpt>
      <trkpt lat="44.44648" lon="0.95055">
        <ele>117.42</ele>
        <time>2015-10-03T15:02:10Z</time>
      </trkpt>
      <trkpt lat="44.44695" lon="0.95031">
        <ele>119.34</ele>
        <time>2015-10-03T15:02:24Z</time>
      </trkpt>
      <trkpt lat="44.44716" lon="0.95021">
        <ele>119.82</ele>
        <time>2015-10-03T15:02:35Z</time>
      </trkpt>
      <trkpt lat="44.44717" lon="0.9502">
        <ele>120.3</ele>
        <time>2015-10-03T15:02:57Z</time>
      </trkpt>
      <trkpt lat="44.44716" lon="0.9502">
        <ele>120.78</ele>
        <time>2015-10-03T15:03:21Z</time>
      </trkpt>
      <trkpt lat="44.44716" lon="0.9502">
        <ele>120.78</ele>
        <time>2015-10-03T15:03:22Z</time>
      </trkpt>
      <trkpt lat="44.44718" lon="0.9502">
        <ele>120.78</ele>
        <time>2015-10-03T15:03:23Z</time>
      </trkpt>
      <trkpt lat="44.4472" lon="0.95019">
        <ele>120.78</ele>
        <time>2015-10-03T15:03:24Z</time>
      </trkpt>
      <trkpt lat="44.44723" lon="0.95018">
        <ele>120.3</ele>
        <time>2015-10-03T15:03:25Z</time>
      </trkpt>
      <trkpt lat="44.44727" lon="0.95018">
        <ele>120.3</ele>
        <time>2015-10-03T15:03:26Z</time>
      </trkpt>
      <trkpt lat="44.4473" lon="0.95019">
        <ele>119.82</ele>
        <time>2015-10-03T15:03:27Z</time>
      </trkpt>
      <trkpt lat="44.44734" lon="0.9502">
        <ele>119.82</ele>
        <time>2015-10-03T15:03:28Z</time>
      </trkpt>
      <trkpt lat="44.44778" lon="0.95015">
        <ele>119.82</ele>
        <time>2015-10-03T15:03:40Z</time>
      </trkpt>
      <trkpt lat="44.44806" lon="0.95012">
        <ele>120.78</ele>
        <time>2015-10-03T15:03:48Z</time>
      </trkpt>
      <trkpt lat="44.44844" lon="0.95019">
        <ele>119.34</ele>
        <time>2015-10-03T15:03:55Z</time>
      </trkpt>
      <trkpt lat="44.44868" lon="0.95012">
        <ele>118.86</ele>
        <time>2015-10-03T15:03:59Z</time>
      </trkpt>
      <trkpt lat="44.44908" lon="0.94985">
        <ele>119.34</ele>
        <time>2015-10-03T15:04:07Z</time>
      </trkpt>
      <trkpt lat="44.44947" lon="0.94963">
        <ele>120.3</ele>
        <time>2015-10-03T15:04:23Z</time>
      </trkpt>
      <trkpt lat="44.44981" lon="0.94954">
        <ele>122.22</ele>
        <time>2015-10-03T15:04:36Z</time>
      </trkpt>
      <trkpt lat="44.45019" lon="0.94942">
        <ele>123.67</ele>
        <time>2015-10-03T15:04:52Z</time>
      </trkpt>
      <trkpt lat="44.45049" lon="0.9493">
        <ele>125.11</ele>
        <time>2015-10-03T15:05:06Z</time>
      </trkpt>
      <trkpt lat="44.45054" lon="0.94933">
        <ele>125.11</ele>
        <time>2015-10-03T15:05:09Z</time>
      </trkpt>
      <trkpt lat="44.45057" lon="0.94936">
        <ele>125.11</ele>
        <time>2015-10-03T15:05:20Z</time>
      </trkpt>
      <trkpt lat="44.45058" lon="0.94936">
        <ele>124.63</ele>
        <time>2015-10-03T15:05:38Z</time>
      </trkpt>
      <trkpt lat="44.45058" lon="0.94937">
        <ele>125.59</ele>
        <time>2015-10-03T15:06:03Z</time>
      </trkpt>
      <trkpt lat="44.45058" lon="0.94936">
        <ele>124.63</ele>
        <time>2015-10-03T15:06:32Z</time>
      </trkpt>
      <trkpt lat="44.45058" lon="0.94937">
        <ele>124.15</ele>
        <time>2015-10-03T15:07:06Z</time>
      </trkpt>
      <trkpt lat="44.45057" lon="0.94936">
        <ele>124.63</ele>
        <time>2015-10-03T15:07:34Z</time>
      </trkpt>
      <trkpt lat="44.45057" lon="0.94936">
        <ele>124.15</ele>
        <time>2015-10-03T15:07:52Z</time>
      </trkpt>
      <trkpt lat="44.45087" lon="0.94951">
        <ele>123.67</ele>
        <time>2015-10-03T15:08:03Z</time>
      </trkpt>
      <trkpt lat="44.45149" lon="0.94973">
        <ele>120.78</ele>
        <time>2015-10-03T15:08:19Z</time>
      </trkpt>
      <trkpt lat="44.45177" lon="0.94981">
        <ele>118.86</ele>
        <time>2015-10-03T15:08:29Z</time>
      </trkpt>
      <trkpt lat="44.45195" lon="0.94987">
        <ele>122.71</ele>
        <time>2015-10-03T15:08:38Z</time>
      </trkpt>
      <trkpt lat="44.45201" lon="0.94988">
        <ele>125.11</ele>
        <time>2015-10-03T15:08:42Z</time>
      </trkpt>
      <trkpt lat="44.45208" lon="0.94986">
        <ele>127.99</ele>
        <time>2015-10-03T15:08:50Z</time>
      </trkpt>
      <trkpt lat="44.45215" lon="0.94984">
        <ele>126.07</ele>
        <time>2015-10-03T15:09:04Z</time>
      </trkpt>
      <trkpt lat="44.45216" lon="0.94984">
        <ele>126.07</ele>
        <time>2015-10-03T15:09:23Z</time>
      </trkpt>
      <trkpt lat="44.45216" lon="0.94984">
        <ele>126.07</ele>
        <time>2015-10-03T15:09:24Z</time>
      </trkpt>
      <trkpt lat="44.4522" lon="0.94979">
        <ele>127.03</ele>
        <time>2015-10-03T15:09:28Z</time>
      </trkpt>
      <trkpt lat="44.45226" lon="0.94974">
        <ele>128.47</ele>
        <time>2015-10-03T15:09:31Z</time>
      </trkpt>
      <trkpt lat="44.45236" lon="0.94965">
        <ele>129.92</ele>
        <time>2015-10-03T15:09:35Z</time>
      </trkpt>
      <trkpt lat="44.45281" lon="0.94952">
        <ele>130.4</ele>
        <time>2015-10-03T15:09:47Z</time>
      </trkpt>
      <trkpt lat="44.45308" lon="0.94945">
        <ele>129.43</ele>
        <time>2015-10-03T15:09:53Z</time>
      </trkpt>
      <trkpt lat="44.45323" lon="0.94938">
        <ele>128.95</ele>
        <time>2015-10-03T15:09:56Z</time>
      </trkpt>
      <trkpt lat="44.45356" lon="0.94922">
        <ele>126.07</ele>
        <time>2015-10-03T15:10:06Z</time>
      </trkpt>
      <trkpt lat="44.45373" lon="0.94906">
        <ele>125.11</ele>
        <time>2015-10-03T15:10:11Z</time>
      </trkpt>
      <trkpt lat="44.45386" lon="0.94902">
        <ele>124.15</ele>
        <time>2015-10-03T15:10:15Z</time>
      </trkpt>
      <trkpt lat="44.45427" lon="0.94899">
        <ele>116.46</ele>
        <time>2015-10-03T15:10:27Z</time>
      </trkpt>
      <trkpt lat="44.45459" lon="0.9489">
        <ele>113.09</ele>
        <time>2015-10-03T15:10:38Z</time>
      </trkpt>
      <trkpt lat="44.45464" lon="0.94889">
        <ele>110.21</ele>
        <time>2015-10-03T15:10:51Z</time>
      </trkpt>
      <trkpt lat="44.45466" lon="0.94888">
        <ele>109.73</ele>
        <time>2015-10-03T15:11:14Z</time>
      </trkpt>
      <trkpt lat="44.45466" lon="0.94888">
        <ele>108.29</ele>
        <time>2015-10-03T15:11:36Z</time>
      </trkpt>
      <trkpt lat="44.45464" lon="0.9489">
        <ele>106.36</ele>
        <time>2015-10-03T15:11:58Z</time>
      </trkpt>
      <trkpt lat="44.45472" lon="0.94894">
        <ele>107.32</ele>
        <time>2015-10-03T15:12:27Z</time>
      </trkpt>
      <trkpt lat="44.45497" lon="0.94892">
        <ele>107.32</ele>
        <time>2015-10-03T15:12:35Z</time>
      </trkpt>
      <trkpt lat="44.45523" lon="0.94883">
        <ele>108.29</ele>
        <time>2015-10-03T15:12:42Z</time>
      </trkpt>
      <trkpt lat="44.45577" lon="0.94861">
        <ele>109.73</ele>
        <time>2015-10-03T15:12:54Z</time>
      </trkpt>
      <trkpt lat="44.45619" lon="0.94821">
        <ele>105.88</ele>
        <time>2015-10-03T15:13:07Z</time>
      </trkpt>
      <trkpt lat="44.45665" lon="0.94776">
        <ele>102.52</ele>
        <time>2015-10-03T15:13:20Z</time>
      </trkpt>
      <trkpt lat="44.45707" lon="0.94773">
        <ele>103.96</ele>
        <time>2015-10-03T15:13:33Z</time>
      </trkpt>
      <trkpt lat="44.45749" lon="0.94767">
        <ele>105.4</ele>
        <time>2015-10-03T15:13:48Z</time>
      </trkpt>
      <trkpt lat="44.45784" lon="0.94757">
        <ele>106.36</ele>
        <time>2015-10-03T15:14:01Z</time>
      </trkpt>
      <trkpt lat="44.4583" lon="0.94749">
        <ele>105.4</ele>
        <time>2015-10-03T15:14:15Z</time>
      </trkpt>
      <trkpt lat="44.45893" lon="0.94766">
        <ele>103.96</ele>
        <time>2015-10-03T15:14:31Z</time>
      </trkpt>
      <trkpt lat="44.45947" lon="0.94765">
        <ele>102.52</ele>
        <time>2015-10-03T15:14:46Z</time>
      </trkpt>
      <trkpt lat="44.46009" lon="0.94764">
        <ele>103</ele>
        <time>2015-10-03T15:15:04Z</time>
      </trkpt>
      <trkpt lat="44.46058" lon="0.94769">
        <ele>103</ele>
        <time>2015-10-03T15:15:19Z</time>
      </trkpt>
      <trkpt lat="44.46071" lon="0.94772">
        <ele>102.04</ele>
        <time>2015-10-03T15:15:22Z</time>
      </trkpt>
      <trkpt lat="44.46115" lon="0.94784">
        <ele>99.63</ele>
        <time>2015-10-03T15:15:30Z</time>
      </trkpt>
      <trkpt lat="44.4612" lon="0.94786">
        <ele>99.63</ele>
        <time>2015-10-03T15:15:31Z</time>
      </trkpt>
      <trkpt lat="44.4619" lon="0.9479">
        <ele>98.19</ele>
        <time>2015-10-03T15:15:44Z</time>
      </trkpt>
      <trkpt lat="44.46278" lon="0.94765">
        <ele>92.9</ele>
        <time>2015-10-03T15:15:57Z</time>
      </trkpt>
      <trkpt lat="44.46324" lon="0.94752">
        <ele>91.46</ele>
        <time>2015-10-03T15:16:04Z</time>
      </trkpt>
      <trkpt lat="44.46355" lon="0.94742">
        <ele>90.02</ele>
        <time>2015-10-03T15:16:13Z</time>
      </trkpt>
      <trkpt lat="44.46355" lon="0.94743">
        <ele>91.46</ele>
        <time>2015-10-03T15:16:26Z</time>
      </trkpt>
      <trkpt lat="44.46356" lon="0.94743">
        <ele>92.42</ele>
        <time>2015-10-03T15:16:46Z</time>
      </trkpt>
      <trkpt lat="44.46356" lon="0.94743">
        <ele>92.42</ele>
        <time>2015-10-03T15:17:02Z</time>
      </trkpt>
      <trkpt lat="44.46357" lon="0.94742">
        <ele>91.94</ele>
        <time>2015-10-03T15:17:21Z</time>
      </trkpt>
      <trkpt lat="44.46358" lon="0.94741">
        <ele>91.94</ele>
        <time>2015-10-03T15:17:22Z</time>
      </trkpt>
      <trkpt lat="44.46361" lon="0.9474">
        <ele>91.46</ele>
        <time>2015-10-03T15:17:23Z</time>
      </trkpt>
      <trkpt lat="44.46363" lon="0.94737">
        <ele>91.46</ele>
        <time>2015-10-03T15:17:24Z</time>
      </trkpt>
      <trkpt lat="44.46365" lon="0.94733">
        <ele>91.46</ele>
        <time>2015-10-03T15:17:25Z</time>
      </trkpt>
      <trkpt lat="44.46368" lon="0.94729">
        <ele>91.46</ele>
        <time>2015-10-03T15:17:26Z</time>
      </trkpt>
      <trkpt lat="44.4637" lon="0.94724">
        <ele>90.98</ele>
        <time>2015-10-03T15:17:27Z</time>
      </trkpt>
      <trkpt lat="44.46378" lon="0.94705">
        <ele>90.5</ele>
        <time>2015-10-03T15:17:32Z</time>
      </trkpt>
      <trkpt lat="44.46351" lon="0.94659">
        <ele>89.06</ele>
        <time>2015-10-03T15:17:43Z</time>
      </trkpt>
      <trkpt lat="44.46344" lon="0.9465">
        <ele>88.58</ele>
        <time>2015-10-03T15:17:45Z</time>
      </trkpt>
      <trkpt lat="44.46331" lon="0.94634">
        <ele>88.1</ele>
        <time>2015-10-03T15:17:49Z</time>
      </trkpt>
      <trkpt lat="44.46317" lon="0.94615">
        <ele>87.62</ele>
        <time>2015-10-03T15:17:53Z</time>
      </trkpt>
      <trkpt lat="44.46303" lon="0.94596">
        <ele>87.62</ele>
        <time>2015-10-03T15:17:58Z</time>
      </trkpt>
      <trkpt lat="44.46257" lon="0.94535">
        <ele>86.18</ele>
        <time>2015-10-03T15:18:14Z</time>
      </trkpt>
      <trkpt lat="44.46222" lon="0.94489">
        <ele>85.69</ele>
        <time>2015-10-03T15:18:27Z</time>
      </trkpt>
      <trkpt lat="44.46199" lon="0.94456">
        <ele>85.69</ele>
        <time>2015-10-03T15:18:36Z</time>
      </trkpt>
      <trkpt lat="44.46209" lon="0.94413">
        <ele>84.25</ele>
        <time>2015-10-03T15:18:47Z</time>
      </trkpt>
      <trkpt lat="44.46225" lon="0.94365">
        <ele>81.85</ele>
        <time>2015-10-03T15:18:59Z</time>
      </trkpt>
      <trkpt lat="44.46225" lon="0.94362">
        <ele>81.85</ele>
        <time>2015-10-03T15:19:00Z</time>
      </trkpt>
      <trkpt lat="44.46226" lon="0.9436">
        <ele>81.85</ele>
        <time>2015-10-03T15:19:01Z</time>
      </trkpt>
      <trkpt lat="44.46227" lon="0.94358">
        <ele>81.85</ele>
        <time>2015-10-03T15:19:02Z</time>
      </trkpt>
      <trkpt lat="44.46228" lon="0.94356">
        <ele>81.85</ele>
        <time>2015-10-03T15:19:03Z</time>
      </trkpt>
      <trkpt lat="44.4623" lon="0.94355">
        <ele>81.85</ele>
        <time>2015-10-03T15:19:04Z</time>
      </trkpt>
      <trkpt lat="44.46231" lon="0.94354">
        <ele>80.89</ele>
        <time>2015-10-03T15:19:18Z</time>
      </trkpt>
      <trkpt lat="44.46232" lon="0.94353">
        <ele>80.41</ele>
        <time>2015-10-03T15:19:29Z</time>
      </trkpt>
      <trkpt lat="44.46232" lon="0.94351">
        <ele>79.45</ele>
        <time>2015-10-03T15:19:53Z</time>
      </trkpt>
      <trkpt lat="44.46233" lon="0.94352">
        <ele>78.97</ele>
        <time>2015-10-03T15:20:08Z</time>
      </trkpt>
      <trkpt lat="44.46234" lon="0.94351">
        <ele>78.97</ele>
        <time>2015-10-03T15:20:09Z</time>
      </trkpt>
      <trkpt lat="44.46235" lon="0.94348">
        <ele>78.97</ele>
        <time>2015-10-03T15:20:10Z</time>
      </trkpt>
      <trkpt lat="44.46274" lon="0.94308">
        <ele>77.52</ele>
        <time>2015-10-03T15:20:26Z</time>
      </trkpt>
      <trkpt lat="44.46294" lon="0.94286">
        <ele>77.52</ele>
        <time>2015-10-03T15:20:36Z</time>
      </trkpt>
      <trkpt lat="44.46311" lon="0.94267">
        <ele>77.04</ele>
        <time>2015-10-03T15:20:44Z</time>
      </trkpt>
      <trkpt lat="44.46313" lon="0.94266">
        <ele>77.04</ele>
        <time>2015-10-03T15:20:45Z</time>
      </trkpt>
      <trkpt lat="44.46315" lon="0.94264">
        <ele>77.04</ele>
        <time>2015-10-03T15:20:46Z</time>
      </trkpt>
      <trkpt lat="44.46317" lon="0.94262">
        <ele>77.52</ele>
        <time>2015-10-03T15:20:47Z</time>
      </trkpt>
      <trkpt lat="44.46319" lon="0.9426">
        <ele>77.52</ele>
        <time>2015-10-03T15:20:48Z</time>
      </trkpt>
      <trkpt lat="44.46334" lon="0.94243">
        <ele>77.04</ele>
        <time>2015-10-03T15:21:00Z</time>
      </trkpt>
      <trkpt lat="44.46341" lon="0.94234">
        <ele>76.56</ele>
        <time>2015-10-03T15:21:12Z</time>
      </trkpt>
      <trkpt lat="44.46364" lon="0.94208">
        <ele>77.04</ele>
        <time>2015-10-03T15:21:27Z</time>
      </trkpt>
      <trkpt lat="44.46388" lon="0.94183">
        <ele>77.04</ele>
        <time>2015-10-03T15:21:40Z</time>
      </trkpt>
      <trkpt lat="44.46415" lon="0.94162">
        <ele>77.04</ele>
        <time>2015-10-03T15:21:51Z</time>
      </trkpt>
      <trkpt lat="44.46416" lon="0.94159">
        <ele>77.04</ele>
        <time>2015-10-03T15:21:52Z</time>
      </trkpt>
      <trkpt lat="44.46418" lon="0.94156">
        <ele>77.04</ele>
        <time>2015-10-03T15:21:53Z</time>
      </trkpt>
      <trkpt lat="44.46419" lon="0.94153">
        <ele>77.52</ele>
        <time>2015-10-03T15:21:54Z</time>
      </trkpt>
      <trkpt lat="44.46421" lon="0.9415">
        <ele>77.52</ele>
        <time>2015-10-03T15:21:55Z</time>
      </trkpt>
      <trkpt lat="44.46423" lon="0.94147">
        <ele>77.52</ele>
        <time>2015-10-03T15:21:56Z</time>
      </trkpt>
      <trkpt lat="44.46425" lon="0.94144">
        <ele>77.52</ele>
        <time>2015-10-03T15:21:57Z</time>
      </trkpt>
      <trkpt lat="44.46456" lon="0.94109">
        <ele>77.52</ele>
        <time>2015-10-03T15:22:11Z</time>
      </trkpt>
      <trkpt lat="44.46489" lon="0.94074">
        <ele>77.52</ele>
        <time>2015-10-03T15:22:25Z</time>
      </trkpt>
      <trkpt lat="44.46525" lon="0.94044">
        <ele>77.52</ele>
        <time>2015-10-03T15:22:38Z</time>
      </trkpt>
      <trkpt lat="44.46564" lon="0.94026">
        <ele>78</ele>
        <time>2015-10-03T15:22:52Z</time>
      </trkpt>
      <trkpt lat="44.46603" lon="0.9401">
        <ele>78</ele>
        <time>2015-10-03T15:23:05Z</time>
      </trkpt>
      <trkpt lat="44.46635" lon="0.93999">
        <ele>78.48</ele>
        <time>2015-10-03T15:23:16Z</time>
      </trkpt>
      <trkpt lat="44.46674" lon="0.94012">
        <ele>78</ele>
        <time>2015-10-03T15:23:29Z</time>
      </trkpt>
      <trkpt lat="44.4672" lon="0.94028">
        <ele>77.52</ele>
        <time>2015-10-03T15:23:45Z</time>
      </trkpt>
      <trkpt lat="44.46737" lon="0.93999">
        <ele>77.52</ele>
        <time>2015-10-03T15:23:55Z</time>
      </trkpt>
      <trkpt lat="44.46754" lon="0.93952">
        <ele>77.52</ele>
        <time>2015-10-03T15:24:08Z</time>
      </trkpt>
      <trkpt lat="44.4677" lon="0.93906">
        <ele>76.56</ele>
        <time>2015-10-03T15:24:21Z</time>
      </trkpt>
      <trkpt lat="44.46788" lon="0.93857">
        <ele>76.08</ele>
        <time>2015-10-03T15:24:34Z</time>
      </trkpt>
      <trkpt lat="44.46807" lon="0.93801">
        <ele>77.04</ele>
        <time>2015-10-03T15:24:48Z</time>
      </trkpt>
      <trkpt lat="44.46832" lon="0.93724">
        <ele>76.56</ele>
        <time>2015-10-03T15:25:07Z</time>
      </trkpt>
      <trkpt lat="44.46848" lon="0.93679">
        <ele>76.08</ele>
        <time>2015-10-03T15:25:19Z</time>
      </trkpt>
      <trkpt lat="44.46864" lon="0.93635">
        <ele>75.6</ele>
        <time>2015-10-03T15:25:33Z</time>
      </trkpt>
      <trkpt lat="44.46864" lon="0.93633">
        <ele>75.6</ele>
        <time>2015-10-03T15:25:48Z</time>
      </trkpt>
      <trkpt lat="44.46866" lon="0.93633">
        <ele>75.6</ele>
        <time>2015-10-03T15:25:49Z</time>
      </trkpt>
      <trkpt lat="44.46868" lon="0.93633">
        <ele>75.12</ele>
        <time>2015-10-03T15:25:50Z</time>
      </trkpt>
      <trkpt lat="44.4687" lon="0.93634">
        <ele>75.12</ele>
        <time>2015-10-03T15:25:51Z</time>
      </trkpt>
      <trkpt lat="44.46872" lon="0.93634">
        <ele>75.12</ele>
        <time>2015-10-03T15:25:52Z</time>
      </trkpt>
      <trkpt lat="44.46874" lon="0.93634">
        <ele>75.12</ele>
        <time>2015-10-03T15:25:53Z</time>
      </trkpt>
      <trkpt lat="44.46878" lon="0.93634">
        <ele>75.12</ele>
        <time>2015-10-03T15:25:56Z</time>
      </trkpt>
      <trkpt lat="44.46887" lon="0.93629">
        <ele>74.64</ele>
        <time>2015-10-03T15:26:06Z</time>
      </trkpt>
      <trkpt lat="44.46888" lon="0.93628">
        <ele>74.64</ele>
        <time>2015-10-03T15:26:07Z</time>
      </trkpt>
      <trkpt lat="44.46893" lon="0.93603">
        <ele>71.76</ele>
        <time>2015-10-03T15:26:18Z</time>
      </trkpt>
      <trkpt lat="44.46911" lon="0.9358">
        <ele>69.83</ele>
        <time>2015-10-03T15:26:28Z</time>
      </trkpt>
      <trkpt lat="44.46948" lon="0.93592">
        <ele>68.87</ele>
        <time>2015-10-03T15:26:40Z</time>
      </trkpt>
      <trkpt lat="44.46981" lon="0.9358">
        <ele>68.87</ele>
        <time>2015-10-03T15:26:51Z</time>
      </trkpt>
      <trkpt lat="44.46984" lon="0.93579">
        <ele>68.39</ele>
        <time>2015-10-03T15:26:52Z</time>
      </trkpt>
      <trkpt lat="44.46987" lon="0.93578">
        <ele>68.39</ele>
        <time>2015-10-03T15:26:53Z</time>
      </trkpt>
      <trkpt lat="44.4699" lon="0.93577">
        <ele>68.39</ele>
        <time>2015-10-03T15:26:54Z</time>
      </trkpt>
      <trkpt lat="44.46993" lon="0.93575">
        <ele>67.91</ele>
        <time>2015-10-03T15:26:55Z</time>
      </trkpt>
      <trkpt lat="44.46995" lon="0.93573">
        <ele>67.91</ele>
        <time>2015-10-03T15:26:56Z</time>
      </trkpt>
      <trkpt lat="44.46997" lon="0.9357">
        <ele>67.91</ele>
        <time>2015-10-03T15:26:57Z</time>
      </trkpt>
      <trkpt lat="44.46999" lon="0.93567">
        <ele>67.91</ele>
        <time>2015-10-03T15:26:58Z</time>
      </trkpt>
      <trkpt lat="44.47001" lon="0.93563">
        <ele>67.91</ele>
        <time>2015-10-03T15:26:59Z</time>
      </trkpt>
      <trkpt lat="44.47002" lon="0.9356">
        <ele>67.43</ele>
        <time>2015-10-03T15:27:00Z</time>
      </trkpt>
      <trkpt lat="44.47004" lon="0.93556">
        <ele>67.91</ele>
        <time>2015-10-03T15:27:01Z</time>
      </trkpt>
      <trkpt lat="44.47007" lon="0.93552">
        <ele>67.91</ele>
        <time>2015-10-03T15:27:02Z</time>
      </trkpt>
      <trkpt lat="44.4705" lon="0.93508">
        <ele>67.43</ele>
        <time>2015-10-03T15:27:16Z</time>
      </trkpt>
      <trkpt lat="44.47069" lon="0.93493">
        <ele>67.91</ele>
        <time>2015-10-03T15:27:22Z</time>
      </trkpt>
      <trkpt lat="44.47071" lon="0.93489">
        <ele>67.91</ele>
        <time>2015-10-03T15:27:23Z</time>
      </trkpt>
      <trkpt lat="44.47073" lon="0.93486">
        <ele>67.91</ele>
        <time>2015-10-03T15:27:24Z</time>
      </trkpt>
      <trkpt lat="44.47084" lon="0.93477">
        <ele>67.91</ele>
        <time>2015-10-03T15:27:28Z</time>
      </trkpt>
      <trkpt lat="44.47087" lon="0.93476">
        <ele>67.91</ele>
        <time>2015-10-03T15:27:29Z</time>
      </trkpt>
      <trkpt lat="44.47089" lon="0.93474">
        <ele>67.91</ele>
        <time>2015-10-03T15:27:30Z</time>
      </trkpt>
      <trkpt lat="44.47091" lon="0.93472">
        <ele>67.91</ele>
        <time>2015-10-03T15:27:31Z</time>
      </trkpt>
      <trkpt lat="44.47093" lon="0.93471">
        <ele>68.39</ele>
        <time>2015-10-03T15:27:32Z</time>
      </trkpt>
      <trkpt lat="44.47095" lon="0.93471">
        <ele>68.39</ele>
        <time>2015-10-03T15:27:33Z</time>
      </trkpt>
      <trkpt lat="44.47097" lon="0.93473">
        <ele>68.39</ele>
        <time>2015-10-03T15:27:34Z</time>
      </trkpt>
      <trkpt lat="44.47107" lon="0.93487">
        <ele>67.91</ele>
        <time>2015-10-03T15:27:43Z</time>
      </trkpt>
      <trkpt lat="44.4711" lon="0.93487">
        <ele>67.91</ele>
        <time>2015-10-03T15:27:44Z</time>
      </trkpt>
      <trkpt lat="44.47146" lon="0.93475">
        <ele>67.43</ele>
        <time>2015-10-03T15:27:56Z</time>
      </trkpt>
      <trkpt lat="44.47161" lon="0.9347">
        <ele>67.43</ele>
        <time>2015-10-03T15:28:00Z</time>
      </trkpt>
      <trkpt lat="44.47165" lon="0.93468">
        <ele>66.95</ele>
        <time>2015-10-03T15:28:01Z</time>
      </trkpt>
      <trkpt lat="44.47169" lon="0.93466">
        <ele>66.95</ele>
        <time>2015-10-03T15:28:02Z</time>
      </trkpt>
      <trkpt lat="44.47199" lon="0.93449">
        <ele>66.47</ele>
        <time>2015-10-03T15:28:11Z</time>
      </trkpt>
      <trkpt lat="44.47201" lon="0.93446">
        <ele>66.47</ele>
        <time>2015-10-03T15:28:12Z</time>
      </trkpt>
      <trkpt lat="44.47203" lon="0.93443">
        <ele>66.47</ele>
        <time>2015-10-03T15:28:13Z</time>
      </trkpt>
      <trkpt lat="44.47204" lon="0.9344">
        <ele>66.47</ele>
        <time>2015-10-03T15:28:14Z</time>
      </trkpt>
      <trkpt lat="44.47205" lon="0.93438">
        <ele>66.47</ele>
        <time>2015-10-03T15:28:15Z</time>
      </trkpt>
      <trkpt lat="44.47206" lon="0.93435">
        <ele>66.47</ele>
        <time>2015-10-03T15:28:16Z</time>
      </trkpt>
      <trkpt lat="44.47206" lon="0.93433">
        <ele>66.47</ele>
        <time>2015-10-03T15:28:26Z</time>
      </trkpt>
      <trkpt lat="44.47207" lon="0.93432">
        <ele>66.47</ele>
        <time>2015-10-03T15:28:54Z</time>
      </trkpt>
    </trkseg>
  </trk>
</gpx>